<?xml version="1.0" encoding="utf-8"?>
<gpx xmlns:tc2="http://www.garmin.com/xmlschemas/TrainingCenterDatabase/v2" xmlns:xsi="http://www.w3.org/2001/XMLSchema-instance" xmlns:tp1="http://www.garmin.com/xmlschemas/TrackPointExtension/v1" xmlns="http://www.topografix.com/GPX/1/1" version="1.1" creator="TC2 to GPX11 XSLT stylesheet" xsi:schemaLocation="http://www.topografix.com/GPX/1/1 http://www.topografix.com/GPX/1/1/gpx.xsd http://www.garmin.com/xmlschemas/TrackPointExtension/v1 http://www.garmin.com/xmlschemas/TrackPointExtensionv1.xsd">
<trk>
<name>80_hinsbeck</name>
<trkseg>
<trkpt lat="51.2229620" lon="6.5860330">
<ele>41.0000000</ele>
<time>2008-07-11T18:50:43Z</time>
</trkpt>
<trkpt lat="51.2226120" lon="6.5860330">
<ele>42.0000000</ele>
<time>2008-07-11T18:50:48Z</time>
</trkpt>
<trkpt lat="51.2228540" lon="6.5850860">
<ele>42.0000000</ele>
<time>2008-07-11T18:50:58Z</time>
</trkpt>
<trkpt lat="51.2224500" lon="6.5848710">
<ele>42.0000000</ele>
<time>2008-07-11T18:51:05Z</time>
</trkpt>
<trkpt lat="51.2219920" lon="6.5847420">
<ele>42.0000000</ele>
<time>2008-07-11T18:51:12Z</time>
</trkpt>
<trkpt lat="51.2216690" lon="6.5845700">
<ele>41.0000000</ele>
<time>2008-07-11T18:51:17Z</time>
</trkpt>
<trkpt lat="51.2213720" lon="6.5848280">
<ele>42.0000000</ele>
<time>2008-07-11T18:51:22Z</time>
</trkpt>
<trkpt lat="51.2209140" lon="6.5865490">
<ele>41.0000000</ele>
<time>2008-07-11T18:51:41Z</time>
</trkpt>
<trkpt lat="51.2209140" lon="6.5868930">
<ele>41.0000000</ele>
<time>2008-07-11T18:51:44Z</time>
</trkpt>
<trkpt lat="51.2197550" lon="6.5870230">
<ele>41.0000000</ele>
<time>2008-07-11T18:52:02Z</time>
</trkpt>
<trkpt lat="51.2188660" lon="6.5873670">
<ele>41.0000000</ele>
<time>2008-07-11T18:52:16Z</time>
</trkpt>
<trkpt lat="51.2174910" lon="6.5881840">
<ele>41.0000000</ele>
<time>2008-07-11T18:52:38Z</time>
</trkpt>
<trkpt lat="51.2171410" lon="6.5875390">
<ele>40.0000000</ele>
<time>2008-07-11T18:52:47Z</time>
</trkpt>
<trkpt lat="51.2168720" lon="6.5870230">
<ele>41.0000000</ele>
<time>2008-07-11T18:52:53Z</time>
</trkpt>
<trkpt lat="51.2163870" lon="6.5865060">
<ele>41.0000000</ele>
<time>2008-07-11T18:53:02Z</time>
</trkpt>
<trkpt lat="51.2160360" lon="6.5858180">
<ele>43.0000000</ele>
<time>2008-07-11T18:53:11Z</time>
</trkpt>
<trkpt lat="51.2152280" lon="6.5830640">
<ele>41.0000000</ele>
<time>2008-07-11T18:53:40Z</time>
</trkpt>
<trkpt lat="51.2145000" lon="6.5824190">
<ele>42.0000000</ele>
<time>2008-07-11T18:53:53Z</time>
</trkpt>
<trkpt lat="51.2137990" lon="6.5813860">
<ele>42.0000000</ele>
<time>2008-07-11T18:54:07Z</time>
</trkpt>
<trkpt lat="51.2140150" lon="6.5803100">
<ele>41.0000000</ele>
<time>2008-07-11T18:54:18Z</time>
</trkpt>
<trkpt lat="51.2142580" lon="6.5788910">
<ele>41.0000000</ele>
<time>2008-07-11T18:54:33Z</time>
</trkpt>
<trkpt lat="51.2150390" lon="6.5767820">
<ele>41.0000000</ele>
<time>2008-07-11T18:54:56Z</time>
</trkpt>
<trkpt lat="51.2156320" lon="6.5753620">
<ele>40.0000000</ele>
<time>2008-07-11T18:55:13Z</time>
</trkpt>
<trkpt lat="51.2167370" lon="6.5741140">
<ele>41.0000000</ele>
<time>2008-07-11T18:55:33Z</time>
</trkpt>
<trkpt lat="51.2170330" lon="6.5734690">
<ele>41.0000000</ele>
<time>2008-07-11T18:55:41Z</time>
</trkpt>
<trkpt lat="51.2193780" lon="6.5702850">
<ele>40.0000000</ele>
<time>2008-07-11T18:56:29Z</time>
</trkpt>
<trkpt lat="51.2197010" lon="6.5695970">
<ele>40.0000000</ele>
<time>2008-07-11T18:56:37Z</time>
</trkpt>
<trkpt lat="51.2204290" lon="6.5658100">
<ele>38.0000000</ele>
<time>2008-07-11T18:57:15Z</time>
</trkpt>
<trkpt lat="51.2210220" lon="6.5640460">
<ele>38.0000000</ele>
<time>2008-07-11T18:57:34Z</time>
</trkpt>
<trkpt lat="51.2220190" lon="6.5624970">
<ele>38.0000000</ele>
<time>2008-07-11T18:57:56Z</time>
</trkpt>
<trkpt lat="51.2234200" lon="6.5614220">
<ele>41.0000000</ele>
<time>2008-07-11T18:58:20Z</time>
</trkpt>
<trkpt lat="51.2251450" lon="6.5613780">
<ele>43.0000000</ele>
<time>2008-07-11T18:58:46Z</time>
</trkpt>
<trkpt lat="51.2251720" lon="6.5613780">
<ele>43.0000000</ele>
<time>2008-07-11T18:58:47Z</time>
</trkpt>
<trkpt lat="51.2285950" lon="6.5620670">
<ele>39.0000000</ele>
<time>2008-07-11T18:59:40Z</time>
</trkpt>
<trkpt lat="51.2286650" lon="6.5578540">
<ele>41.0000000</ele>
<time>2008-07-11T19:00:20Z</time>
</trkpt>
<trkpt lat="51.2287730" lon="6.5563470">
<ele>41.0000000</ele>
<time>2008-07-11T19:00:35Z</time>
</trkpt>
<trkpt lat="51.2295000" lon="6.5498040">
<ele>40.0000000</ele>
<time>2008-07-11T19:01:39Z</time>
</trkpt>
<trkpt lat="51.2330040" lon="6.5506650">
<ele>39.0000000</ele>
<time>2008-07-11T19:02:34Z</time>
</trkpt>
<trkpt lat="51.2342970" lon="6.5513540">
<ele>42.0000000</ele>
<time>2008-07-11T19:02:55Z</time>
</trkpt>
<trkpt lat="51.2367770" lon="6.5532480">
<ele>42.0000000</ele>
<time>2008-07-11T19:03:37Z</time>
</trkpt>
<trkpt lat="51.2368030" lon="6.5520860">
<ele>41.0000000</ele>
<time>2008-07-11T19:03:48Z</time>
</trkpt>
<trkpt lat="51.2367500" lon="6.5511820">
<ele>40.0000000</ele>
<time>2008-07-11T19:03:57Z</time>
</trkpt>
<trkpt lat="51.2372350" lon="6.5495890">
<ele>40.0000000</ele>
<time>2008-07-11T19:04:14Z</time>
</trkpt>
<trkpt lat="51.2380160" lon="6.5473940">
<ele>40.0000000</ele>
<time>2008-07-11T19:04:38Z</time>
</trkpt>
<trkpt lat="51.2383130" lon="6.5456290">
<ele>40.0000000</ele>
<time>2008-07-11T19:04:56Z</time>
</trkpt>
<trkpt lat="51.2400100" lon="6.5429170">
<ele>40.0000000</ele>
<time>2008-07-11T19:05:33Z</time>
</trkpt>
<trkpt lat="51.2410880" lon="6.5441660">
<ele>40.0000000</ele>
<time>2008-07-11T19:05:54Z</time>
</trkpt>
<trkpt lat="51.2430020" lon="6.5451560">
<ele>40.0000000</ele>
<time>2008-07-11T19:06:24Z</time>
</trkpt>
<trkpt lat="51.2449150" lon="6.5451130">
<ele>41.0000000</ele>
<time>2008-07-11T19:06:54Z</time>
</trkpt>
<trkpt lat="51.2467750" lon="6.5439510">
<ele>39.0000000</ele>
<time>2008-07-11T19:07:25Z</time>
</trkpt>
<trkpt lat="51.2487160" lon="6.5420550">
<ele>38.0000000</ele>
<time>2008-07-11T19:08:00Z</time>
</trkpt>
<trkpt lat="51.2500910" lon="6.5406340">
<ele>39.0000000</ele>
<time>2008-07-11T19:08:26Z</time>
</trkpt>
<trkpt lat="51.2515730" lon="6.5398160">
<ele>37.0000000</ele>
<time>2008-07-11T19:08:50Z</time>
</trkpt>
<trkpt lat="51.2530820" lon="6.5397300">
<ele>36.0000000</ele>
<time>2008-07-11T19:09:13Z</time>
</trkpt>
<trkpt lat="51.2539980" lon="6.5402460">
<ele>39.0000000</ele>
<time>2008-07-11T19:09:28Z</time>
</trkpt>
<trkpt lat="51.2545100" lon="6.5367150">
<ele>39.0000000</ele>
<time>2008-07-11T19:10:03Z</time>
</trkpt>
<trkpt lat="51.2545640" lon="6.5355530">
<ele>38.0000000</ele>
<time>2008-07-11T19:10:14Z</time>
</trkpt>
<trkpt lat="51.2545640" lon="6.5343470">
<ele>39.0000000</ele>
<time>2008-07-11T19:10:26Z</time>
</trkpt>
<trkpt lat="51.2556150" lon="6.5312900">
<ele>37.0000000</ele>
<time>2008-07-11T19:10:59Z</time>
</trkpt>
<trkpt lat="51.2570170" lon="6.5300840">
<ele>39.0000000</ele>
<time>2008-07-11T19:11:24Z</time>
</trkpt>
<trkpt lat="51.2574750" lon="6.5240980">
<ele>39.0000000</ele>
<time>2008-07-11T19:12:22Z</time>
</trkpt>
<trkpt lat="51.2577980" lon="6.5215150">
<ele>39.0000000</ele>
<time>2008-07-11T19:12:47Z</time>
</trkpt>
<trkpt lat="51.2570300" lon="6.5188010">
<ele>37.0000000</ele>
<time>2008-07-11T19:13:16Z</time>
</trkpt>
<trkpt lat="51.2563570" lon="6.5177250">
<ele>38.0000000</ele>
<time>2008-07-11T19:13:31Z</time>
</trkpt>
<trkpt lat="51.2589440" lon="6.5097590">
<ele>36.0000000</ele>
<time>2008-07-11T19:14:57Z</time>
</trkpt>
<trkpt lat="51.2600490" lon="6.5087250">
<ele>39.0000000</ele>
<time>2008-07-11T19:15:17Z</time>
</trkpt>
<trkpt lat="51.2619350" lon="6.5095430">
<ele>40.0000000</ele>
<time>2008-07-11T19:15:47Z</time>
</trkpt>
<trkpt lat="51.2624200" lon="6.5101460">
<ele>39.0000000</ele>
<time>2008-07-11T19:15:56Z</time>
</trkpt>
<trkpt lat="51.2635790" lon="6.5125150">
<ele>39.0000000</ele>
<time>2008-07-11T19:16:25Z</time>
</trkpt>
<trkpt lat="51.2638480" lon="6.5129020">
<ele>40.0000000</ele>
<time>2008-07-11T19:16:31Z</time>
</trkpt>
<trkpt lat="51.2640100" lon="6.5129450">
<ele>41.0000000</ele>
<time>2008-07-11T19:16:33Z</time>
</trkpt>
<trkpt lat="51.2635520" lon="6.5120840">
<ele>39.0000000</ele>
<time>2008-07-11T19:16:44Z</time>
</trkpt>
<trkpt lat="51.2634710" lon="6.5091130">
<ele>38.0000000</ele>
<time>2008-07-11T19:17:13Z</time>
</trkpt>
<trkpt lat="51.2634440" lon="6.5089840">
<ele>38.0000000</ele>
<time>2008-07-11T19:17:14Z</time>
</trkpt>
<trkpt lat="51.2632020" lon="6.5067440">
<ele>38.0000000</ele>
<time>2008-07-11T19:17:36Z</time>
</trkpt>
<trkpt lat="51.2634980" lon="6.5026960">
<ele>38.0000000</ele>
<time>2008-07-11T19:18:15Z</time>
</trkpt>
<trkpt lat="51.2634980" lon="6.5020080">
<ele>38.0000000</ele>
<time>2008-07-11T19:18:22Z</time>
</trkpt>
<trkpt lat="51.2648460" lon="6.4977010">
<ele>38.0000000</ele>
<time>2008-07-11T19:19:09Z</time>
</trkpt>
<trkpt lat="51.2650610" lon="6.4977440">
<ele>38.0000000</ele>
<time>2008-07-11T19:19:12Z</time>
</trkpt>
<trkpt lat="51.2652370" lon="6.4963310">
<ele>37.0000000</ele>
<time>2008-07-11T19:19:26Z</time>
</trkpt>
<trkpt lat="51.2662880" lon="6.4885340">
<ele>41.0000000</ele>
<time>2008-07-11T19:20:43Z</time>
</trkpt>
<trkpt lat="51.2677170" lon="6.4820290">
<ele>40.0000000</ele>
<time>2008-07-11T19:21:49Z</time>
</trkpt>
<trkpt lat="51.2677710" lon="6.4777640">
<ele>37.0000000</ele>
<time>2008-07-11T19:22:30Z</time>
</trkpt>
<trkpt lat="51.2676630" lon="6.4768160">
<ele>37.0000000</ele>
<time>2008-07-11T19:22:40Z</time>
</trkpt>
<trkpt lat="51.2676630" lon="6.4753510">
<ele>37.0000000</ele>
<time>2008-07-11T19:22:54Z</time>
</trkpt>
<trkpt lat="51.2679590" lon="6.4714310">
<ele>36.0000000</ele>
<time>2008-07-11T19:23:32Z</time>
</trkpt>
<trkpt lat="51.2678510" lon="6.4708710">
<ele>39.0000000</ele>
<time>2008-07-11T19:23:37Z</time>
</trkpt>
<trkpt lat="51.2715170" lon="6.4663910">
<ele>39.0000000</ele>
<time>2008-07-11T19:24:48Z</time>
</trkpt>
<trkpt lat="51.2720290" lon="6.4662620">
<ele>39.0000000</ele>
<time>2008-07-11T19:24:56Z</time>
</trkpt>
<trkpt lat="51.2728370" lon="6.4664340">
<ele>40.0000000</ele>
<time>2008-07-11T19:25:09Z</time>
</trkpt>
<trkpt lat="51.2732680" lon="6.4667360">
<ele>41.0000000</ele>
<time>2008-07-11T19:25:16Z</time>
</trkpt>
<trkpt lat="51.2733220" lon="6.4669080">
<ele>41.0000000</ele>
<time>2008-07-11T19:25:18Z</time>
</trkpt>
<trkpt lat="51.2736730" lon="6.4694930">
<ele>40.0000000</ele>
<time>2008-07-11T19:25:44Z</time>
</trkpt>
<trkpt lat="51.2751280" lon="6.4723360">
<ele>39.0000000</ele>
<time>2008-07-11T19:26:19Z</time>
</trkpt>
<trkpt lat="51.2764480" lon="6.4697940">
<ele>39.0000000</ele>
<time>2008-07-11T19:26:52Z</time>
</trkpt>
<trkpt lat="51.2769870" lon="6.4691480">
<ele>40.0000000</ele>
<time>2008-07-11T19:27:02Z</time>
</trkpt>
<trkpt lat="51.2770410" lon="6.4691480">
<ele>40.0000000</ele>
<time>2008-07-11T19:27:03Z</time>
</trkpt>
<trkpt lat="51.2784430" lon="6.4685880">
<ele>38.0000000</ele>
<time>2008-07-11T19:27:25Z</time>
</trkpt>
<trkpt lat="51.2793060" lon="6.4654880">
<ele>39.0000000</ele>
<time>2008-07-11T19:27:58Z</time>
</trkpt>
<trkpt lat="51.2794680" lon="6.4652730">
<ele>40.0000000</ele>
<time>2008-07-11T19:28:01Z</time>
</trkpt>
<trkpt lat="51.2795220" lon="6.4646260">
<ele>40.0000000</ele>
<time>2008-07-11T19:28:07Z</time>
</trkpt>
<trkpt lat="51.2793600" lon="6.4640230">
<ele>39.0000000</ele>
<time>2008-07-11T19:28:14Z</time>
</trkpt>
<trkpt lat="51.2789020" lon="6.4635490">
<ele>39.0000000</ele>
<time>2008-07-11T19:28:22Z</time>
</trkpt>
<trkpt lat="51.2787130" lon="6.4632480">
<ele>42.0000000</ele>
<time>2008-07-11T19:28:26Z</time>
</trkpt>
<trkpt lat="51.2786860" lon="6.4626880">
<ele>42.0000000</ele>
<time>2008-07-11T19:28:31Z</time>
</trkpt>
<trkpt lat="51.2784170" lon="6.4623000">
<ele>42.0000000</ele>
<time>2008-07-11T19:28:37Z</time>
</trkpt>
<trkpt lat="51.2778510" lon="6.4616540">
<ele>40.0000000</ele>
<time>2008-07-11T19:28:48Z</time>
</trkpt>
<trkpt lat="51.2769080" lon="6.4603180">
<ele>37.0000000</ele>
<time>2008-07-11T19:29:07Z</time>
</trkpt>
<trkpt lat="51.2767190" lon="6.4600160">
<ele>37.0000000</ele>
<time>2008-07-11T19:29:11Z</time>
</trkpt>
<trkpt lat="51.2764220" lon="6.4593700">
<ele>37.0000000</ele>
<time>2008-07-11T19:29:19Z</time>
</trkpt>
<trkpt lat="51.2758570" lon="6.4579050">
<ele>38.0000000</ele>
<time>2008-07-11T19:29:36Z</time>
</trkpt>
<trkpt lat="51.2754250" lon="6.4567850">
<ele>39.0000000</ele>
<time>2008-07-11T19:29:48Z</time>
</trkpt>
<trkpt lat="51.2752100" lon="6.4556220">
<ele>39.0000000</ele>
<time>2008-07-11T19:30:00Z</time>
</trkpt>
<trkpt lat="51.2748320" lon="6.4547600">
<ele>39.0000000</ele>
<time>2008-07-11T19:30:10Z</time>
</trkpt>
<trkpt lat="51.2742130" lon="6.4542860">
<ele>36.0000000</ele>
<time>2008-07-11T19:30:21Z</time>
</trkpt>
<trkpt lat="51.2729460" lon="6.4538980">
<ele>34.0000000</ele>
<time>2008-07-11T19:30:41Z</time>
</trkpt>
<trkpt lat="51.2695500" lon="6.4526050">
<ele>38.0000000</ele>
<time>2008-07-11T19:31:34Z</time>
</trkpt>
<trkpt lat="51.2703590" lon="6.4500200">
<ele>38.0000000</ele>
<time>2008-07-11T19:32:02Z</time>
</trkpt>
<trkpt lat="51.2703860" lon="6.4500200">
<ele>38.0000000</ele>
<time>2008-07-11T19:32:03Z</time>
</trkpt>
<trkpt lat="51.2707360" lon="6.4492020">
<ele>37.0000000</ele>
<time>2008-07-11T19:32:12Z</time>
</trkpt>
<trkpt lat="51.2714640" lon="6.4481250">
<ele>36.0000000</ele>
<time>2008-07-11T19:32:27Z</time>
</trkpt>
<trkpt lat="51.2722720" lon="6.4468330">
<ele>37.0000000</ele>
<time>2008-07-11T19:32:45Z</time>
</trkpt>
<trkpt lat="51.2727300" lon="6.4452820">
<ele>35.0000000</ele>
<time>2008-07-11T19:33:02Z</time>
</trkpt>
<trkpt lat="51.2730810" lon="6.4431710">
<ele>36.0000000</ele>
<time>2008-07-11T19:33:23Z</time>
</trkpt>
<trkpt lat="51.2734040" lon="6.4415770">
<ele>36.0000000</ele>
<time>2008-07-11T19:33:39Z</time>
</trkpt>
<trkpt lat="51.2740240" lon="6.4403710">
<ele>36.0000000</ele>
<time>2008-07-11T19:33:54Z</time>
</trkpt>
<trkpt lat="51.2757760" lon="6.4379160">
<ele>36.0000000</ele>
<time>2008-07-11T19:34:30Z</time>
</trkpt>
<trkpt lat="51.2762340" lon="6.4370540">
<ele>36.0000000</ele>
<time>2008-07-11T19:34:41Z</time>
</trkpt>
<trkpt lat="51.2767730" lon="6.4355900">
<ele>37.0000000</ele>
<time>2008-07-11T19:34:57Z</time>
</trkpt>
<trkpt lat="51.2771770" lon="6.4342970">
<ele>38.0000000</ele>
<time>2008-07-11T19:35:11Z</time>
</trkpt>
<trkpt lat="51.2780130" lon="6.4327460">
<ele>38.0000000</ele>
<time>2008-07-11T19:35:31Z</time>
</trkpt>
<trkpt lat="51.2792520" lon="6.4307650">
<ele>38.0000000</ele>
<time>2008-07-11T19:35:58Z</time>
</trkpt>
<trkpt lat="51.2800610" lon="6.4296470">
<ele>38.0000000</ele>
<time>2008-07-11T19:36:14Z</time>
</trkpt>
<trkpt lat="51.2808430" lon="6.4283110">
<ele>36.0000000</ele>
<time>2008-07-11T19:36:32Z</time>
</trkpt>
<trkpt lat="51.2813550" lon="6.4271480">
<ele>36.0000000</ele>
<time>2008-07-11T19:36:46Z</time>
</trkpt>
<trkpt lat="51.2818400" lon="6.4262430">
<ele>35.0000000</ele>
<time>2008-07-11T19:36:57Z</time>
</trkpt>
<trkpt lat="51.2828910" lon="6.4230970">
<ele>36.0000000</ele>
<time>2008-07-11T19:37:32Z</time>
</trkpt>
<trkpt lat="51.2834710" lon="6.4206860">
<ele>35.0000000</ele>
<time>2008-07-11T19:37:56Z</time>
</trkpt>
<trkpt lat="51.2841450" lon="6.4179710">
<ele>35.0000000</ele>
<time>2008-07-11T19:38:25Z</time>
</trkpt>
<trkpt lat="51.2846570" lon="6.4158170">
<ele>34.0000000</ele>
<time>2008-07-11T19:38:47Z</time>
</trkpt>
<trkpt lat="51.2851150" lon="6.4143940">
<ele>33.0000000</ele>
<time>2008-07-11T19:39:02Z</time>
</trkpt>
<trkpt lat="51.2851150" lon="6.4143510">
<ele>33.0000000</ele>
<time>2008-07-11T19:39:03Z</time>
</trkpt>
<trkpt lat="51.2857620" lon="6.4126710">
<ele>34.0000000</ele>
<time>2008-07-11T19:39:22Z</time>
</trkpt>
<trkpt lat="51.2865160" lon="6.4103440">
<ele>35.0000000</ele>
<time>2008-07-11T19:39:47Z</time>
</trkpt>
<trkpt lat="51.2867860" lon="6.4090080">
<ele>35.0000000</ele>
<time>2008-07-11T19:40:00Z</time>
</trkpt>
<trkpt lat="51.2867860" lon="6.4090510">
<ele>35.0000000</ele>
<time>2008-07-11T19:40:01Z</time>
</trkpt>
<trkpt lat="51.2868670" lon="6.4076290">
<ele>36.0000000</ele>
<time>2008-07-11T19:40:15Z</time>
</trkpt>
<trkpt lat="51.2868400" lon="6.4057320">
<ele>36.0000000</ele>
<time>2008-07-11T19:40:33Z</time>
</trkpt>
<trkpt lat="51.2867590" lon="6.4040950">
<ele>37.0000000</ele>
<time>2008-07-11T19:40:49Z</time>
</trkpt>
<trkpt lat="51.2868400" lon="6.4029310">
<ele>37.0000000</ele>
<time>2008-07-11T19:41:00Z</time>
</trkpt>
<trkpt lat="51.2869740" lon="6.4016810">
<ele>36.0000000</ele>
<time>2008-07-11T19:41:12Z</time>
</trkpt>
<trkpt lat="51.2874320" lon="6.4003450">
<ele>35.0000000</ele>
<time>2008-07-11T19:41:27Z</time>
</trkpt>
<trkpt lat="51.2879980" lon="6.3991390">
<ele>36.0000000</ele>
<time>2008-07-11T19:41:41Z</time>
</trkpt>
<trkpt lat="51.2886720" lon="6.3978890">
<ele>35.0000000</ele>
<time>2008-07-11T19:41:57Z</time>
</trkpt>
<trkpt lat="51.2892380" lon="6.3966390">
<ele>36.0000000</ele>
<time>2008-07-11T19:42:12Z</time>
</trkpt>
<trkpt lat="51.2895340" lon="6.3954760">
<ele>35.0000000</ele>
<time>2008-07-11T19:42:24Z</time>
</trkpt>
<trkpt lat="51.2895610" lon="6.3954760">
<ele>35.0000000</ele>
<time>2008-07-11T19:42:25Z</time>
</trkpt>
<trkpt lat="51.2897500" lon="6.3941400">
<ele>35.0000000</ele>
<time>2008-07-11T19:42:38Z</time>
</trkpt>
<trkpt lat="51.2899930" lon="6.3924590">
<ele>35.0000000</ele>
<time>2008-07-11T19:42:54Z</time>
</trkpt>
<trkpt lat="51.2900200" lon="6.3924590">
<ele>35.0000000</ele>
<time>2008-07-11T19:42:55Z</time>
</trkpt>
<trkpt lat="51.2903160" lon="6.3915540">
<ele>35.0000000</ele>
<time>2008-07-11T19:43:05Z</time>
</trkpt>
<trkpt lat="51.2906660" lon="6.3910370">
<ele>35.0000000</ele>
<time>2008-07-11T19:43:12Z</time>
</trkpt>
<trkpt lat="51.2977810" lon="6.3873310">
<ele>35.0000000</ele>
<time>2008-07-11T19:45:07Z</time>
</trkpt>
<trkpt lat="51.2984550" lon="6.3871150">
<ele>35.0000000</ele>
<time>2008-07-11T19:45:18Z</time>
</trkpt>
<trkpt lat="51.2985090" lon="6.3871580">
<ele>35.0000000</ele>
<time>2008-07-11T19:45:19Z</time>
</trkpt>
<trkpt lat="51.2993440" lon="6.3875030">
<ele>33.0000000</ele>
<time>2008-07-11T19:45:32Z</time>
</trkpt>
<trkpt lat="51.2994520" lon="6.3875030">
<ele>33.0000000</ele>
<time>2008-07-11T19:45:34Z</time>
</trkpt>
<trkpt lat="51.3000720" lon="6.3878910">
<ele>34.0000000</ele>
<time>2008-07-11T19:45:44Z</time>
</trkpt>
<trkpt lat="51.3004650" lon="6.3881430">
<ele>36.0000000</ele>
<time>2008-07-11T19:45:50Z</time>
</trkpt>
<trkpt lat="51.3010580" lon="6.3881860">
<ele>36.0000000</ele>
<time>2008-07-11T19:46:00Z</time>
</trkpt>
<trkpt lat="51.3044800" lon="6.3882290">
<ele>34.0000000</ele>
<time>2008-07-11T19:46:52Z</time>
</trkpt>
<trkpt lat="51.3049380" lon="6.3883580">
<ele>34.0000000</ele>
<time>2008-07-11T19:46:59Z</time>
</trkpt>
<trkpt lat="51.3056120" lon="6.3888760">
<ele>34.0000000</ele>
<time>2008-07-11T19:47:11Z</time>
</trkpt>
<trkpt lat="51.3067980" lon="6.3902120">
<ele>34.0000000</ele>
<time>2008-07-11T19:47:33Z</time>
</trkpt>
<trkpt lat="51.3115680" lon="6.3872800">
<ele>34.0000000</ele>
<time>2008-07-11T19:48:52Z</time>
</trkpt>
<trkpt lat="51.3149240" lon="6.3851270">
<ele>34.0000000</ele>
<time>2008-07-11T19:49:48Z</time>
</trkpt>
<trkpt lat="51.3156510" lon="6.3845670">
<ele>33.0000000</ele>
<time>2008-07-11T19:50:00Z</time>
</trkpt>
<trkpt lat="51.3160820" lon="6.3841350">
<ele>33.0000000</ele>
<time>2008-07-11T19:50:08Z</time>
</trkpt>
<trkpt lat="51.3168640" lon="6.3830140">
<ele>34.0000000</ele>
<time>2008-07-11T19:50:24Z</time>
</trkpt>
<trkpt lat="51.3173760" lon="6.3824540">
<ele>34.0000000</ele>
<time>2008-07-11T19:50:34Z</time>
</trkpt>
<trkpt lat="51.3177530" lon="6.3823240">
<ele>34.0000000</ele>
<time>2008-07-11T19:50:39Z</time>
</trkpt>
<trkpt lat="51.3181310" lon="6.3821090">
<ele>35.0000000</ele>
<time>2008-07-11T19:50:46Z</time>
</trkpt>
<trkpt lat="51.3199900" lon="6.3818930">
<ele>37.0000000</ele>
<time>2008-07-11T19:51:14Z</time>
</trkpt>
<trkpt lat="51.3215260" lon="6.3816780">
<ele>37.0000000</ele>
<time>2008-07-11T19:51:38Z</time>
</trkpt>
<trkpt lat="51.3217420" lon="6.3818500">
<ele>37.0000000</ele>
<time>2008-07-11T19:51:42Z</time>
</trkpt>
<trkpt lat="51.3219980" lon="6.3815500">
<ele>37.0000000</ele>
<time>2008-07-11T19:51:47Z</time>
</trkpt>
<trkpt lat="51.3242620" lon="6.3799980">
<ele>37.0000000</ele>
<time>2008-07-11T19:52:25Z</time>
</trkpt>
<trkpt lat="51.3249360" lon="6.3798250">
<ele>38.0000000</ele>
<time>2008-07-11T19:52:35Z</time>
</trkpt>
<trkpt lat="51.3259870" lon="6.3797820">
<ele>37.0000000</ele>
<time>2008-07-11T19:52:51Z</time>
</trkpt>
<trkpt lat="51.3265800" lon="6.3795660">
<ele>35.0000000</ele>
<time>2008-07-11T19:53:01Z</time>
</trkpt>
<trkpt lat="51.3281430" lon="6.3777980">
<ele>35.0000000</ele>
<time>2008-07-11T19:53:30Z</time>
</trkpt>
<trkpt lat="51.3300970" lon="6.3756430">
<ele>37.0000000</ele>
<time>2008-07-11T19:54:07Z</time>
</trkpt>
<trkpt lat="51.3306090" lon="6.3752550">
<ele>35.0000000</ele>
<time>2008-07-11T19:54:15Z</time>
</trkpt>
<trkpt lat="51.3346510" lon="6.3724510">
<ele>35.0000000</ele>
<time>2008-07-11T19:55:23Z</time>
</trkpt>
<trkpt lat="51.3387480" lon="6.3694310">
<ele>34.0000000</ele>
<time>2008-07-11T19:56:33Z</time>
</trkpt>
<trkpt lat="51.3397990" lon="6.3687420">
<ele>35.0000000</ele>
<time>2008-07-11T19:56:50Z</time>
</trkpt>
<trkpt lat="51.3400690" lon="6.3685270">
<ele>35.0000000</ele>
<time>2008-07-11T19:56:55Z</time>
</trkpt>
<trkpt lat="51.3405000" lon="6.3678790">
<ele>35.0000000</ele>
<time>2008-07-11T19:57:04Z</time>
</trkpt>
<trkpt lat="51.3421980" lon="6.3663690">
<ele>35.0000000</ele>
<time>2008-07-11T19:57:34Z</time>
</trkpt>
<trkpt lat="51.3431140" lon="6.3655490">
<ele>34.0000000</ele>
<time>2008-07-11T19:57:50Z</time>
</trkpt>
<trkpt lat="51.3436530" lon="6.3652900">
<ele>34.0000000</ele>
<time>2008-07-11T19:57:59Z</time>
</trkpt>
<trkpt lat="51.3445960" lon="6.3647290">
<ele>35.0000000</ele>
<time>2008-07-11T19:58:14Z</time>
</trkpt>
<trkpt lat="51.3455390" lon="6.3645140">
<ele>34.0000000</ele>
<time>2008-07-11T19:58:29Z</time>
</trkpt>
<trkpt lat="51.3464830" lon="6.3642550">
<ele>34.0000000</ele>
<time>2008-07-11T19:58:44Z</time>
</trkpt>
<trkpt lat="51.3478030" lon="6.3642550">
<ele>36.0000000</ele>
<time>2008-07-11T19:59:04Z</time>
</trkpt>
<trkpt lat="51.3487730" lon="6.3641690">
<ele>35.0000000</ele>
<time>2008-07-11T19:59:19Z</time>
</trkpt>
<trkpt lat="51.3495820" lon="6.3640820">
<ele>35.0000000</ele>
<time>2008-07-11T19:59:31Z</time>
</trkpt>
<trkpt lat="51.3505790" lon="6.3644710">
<ele>33.0000000</ele>
<time>2008-07-11T19:59:47Z</time>
</trkpt>
<trkpt lat="51.3514140" lon="6.3646860">
<ele>35.0000000</ele>
<time>2008-07-11T20:00:00Z</time>
</trkpt>
<trkpt lat="51.3526000" lon="6.3647730">
<ele>35.0000000</ele>
<time>2008-07-11T20:00:18Z</time>
</trkpt>
<trkpt lat="51.3541630" lon="6.3648590">
<ele>35.0000000</ele>
<time>2008-07-11T20:00:42Z</time>
</trkpt>
<trkpt lat="51.3576270" lon="6.3649480">
<ele>35.0000000</ele>
<time>2008-07-11T20:01:36Z</time>
</trkpt>
<trkpt lat="51.3611840" lon="6.3641720">
<ele>33.0000000</ele>
<time>2008-07-11T20:02:31Z</time>
</trkpt>
<trkpt lat="51.3619930" lon="6.3639130">
<ele>33.0000000</ele>
<time>2008-07-11T20:02:44Z</time>
</trkpt>
<trkpt lat="51.3627470" lon="6.3639560">
<ele>33.0000000</ele>
<time>2008-07-11T20:02:55Z</time>
</trkpt>
<trkpt lat="51.3685950" lon="6.3627040">
<ele>40.0000000</ele>
<time>2008-07-11T20:04:26Z</time>
</trkpt>
<trkpt lat="51.3706300" lon="6.3624470">
<ele>35.0000000</ele>
<time>2008-07-11T20:04:58Z</time>
</trkpt>
<trkpt lat="51.3743220" lon="6.3606770">
<ele>31.0000000</ele>
<time>2008-07-11T20:05:57Z</time>
</trkpt>
<trkpt lat="51.3746730" lon="6.3603310">
<ele>29.0000000</ele>
<time>2008-07-11T20:06:03Z</time>
</trkpt>
<trkpt lat="51.3750770" lon="6.3595970">
<ele>29.0000000</ele>
<time>2008-07-11T20:06:13Z</time>
</trkpt>
<trkpt lat="51.3754810" lon="6.3578700">
<ele>31.0000000</ele>
<time>2008-07-11T20:06:30Z</time>
</trkpt>
<trkpt lat="51.3761550" lon="6.3546320">
<ele>29.0000000</ele>
<time>2008-07-11T20:07:03Z</time>
</trkpt>
<trkpt lat="51.3762360" lon="6.3531640">
<ele>30.0000000</ele>
<time>2008-07-11T20:07:17Z</time>
</trkpt>
<trkpt lat="51.3762360" lon="6.3531210">
<ele>30.0000000</ele>
<time>2008-07-11T20:07:18Z</time>
</trkpt>
<trkpt lat="51.3759660" lon="6.3518260">
<ele>30.0000000</ele>
<time>2008-07-11T20:07:31Z</time>
</trkpt>
<trkpt lat="51.3755350" lon="6.3501420">
<ele>35.0000000</ele>
<time>2008-07-11T20:07:48Z</time>
</trkpt>
<trkpt lat="51.3751850" lon="6.3491920">
<ele>41.0000000</ele>
<time>2008-07-11T20:07:59Z</time>
</trkpt>
<trkpt lat="51.3749420" lon="6.3475950">
<ele>36.0000000</ele>
<time>2008-07-11T20:08:15Z</time>
</trkpt>
<trkpt lat="51.3748880" lon="6.3461270">
<ele>31.0000000</ele>
<time>2008-07-11T20:08:29Z</time>
</trkpt>
<trkpt lat="51.3752390" lon="6.3391320">
<ele>32.0000000</ele>
<time>2008-07-11T20:09:36Z</time>
</trkpt>
<trkpt lat="51.3758340" lon="6.3369700">
<ele>34.0000000</ele>
<time>2008-07-11T20:09:59Z</time>
</trkpt>
<trkpt lat="51.3762110" lon="6.3345080">
<ele>33.0000000</ele>
<time>2008-07-11T20:10:24Z</time>
</trkpt>
<trkpt lat="51.3764810" lon="6.3332130">
<ele>34.0000000</ele>
<time>2008-07-11T20:10:37Z</time>
</trkpt>
<trkpt lat="51.3771000" lon="6.3313130">
<ele>31.0000000</ele>
<time>2008-07-11T20:10:57Z</time>
</trkpt>
<trkpt lat="51.3775590" lon="6.3301040">
<ele>32.0000000</ele>
<time>2008-07-11T20:11:11Z</time>
</trkpt>
<trkpt lat="51.3785020" lon="6.3284630">
<ele>33.0000000</ele>
<time>2008-07-11T20:11:32Z</time>
</trkpt>
<trkpt lat="51.3789870" lon="6.3269950">
<ele>32.0000000</ele>
<time>2008-07-11T20:11:48Z</time>
</trkpt>
<trkpt lat="51.3792560" lon="6.3252680">
<ele>32.0000000</ele>
<time>2008-07-11T20:12:05Z</time>
</trkpt>
<trkpt lat="51.3791480" lon="6.3240160">
<ele>32.0000000</ele>
<time>2008-07-11T20:12:18Z</time>
</trkpt>
<trkpt lat="51.3787440" lon="6.3224610">
<ele>32.0000000</ele>
<time>2008-07-11T20:12:34Z</time>
</trkpt>
<trkpt lat="51.3786900" lon="6.3215110">
<ele>32.0000000</ele>
<time>2008-07-11T20:12:43Z</time>
</trkpt>
<trkpt lat="51.3786900" lon="6.3214250">
<ele>32.0000000</ele>
<time>2008-07-11T20:12:44Z</time>
</trkpt>
<trkpt lat="51.3791480" lon="6.3190500">
<ele>33.0000000</ele>
<time>2008-07-11T20:13:08Z</time>
</trkpt>
<trkpt lat="51.3793910" lon="6.3184450">
<ele>33.0000000</ele>
<time>2008-07-11T20:13:15Z</time>
</trkpt>
<trkpt lat="51.3799570" lon="6.3175820">
<ele>34.0000000</ele>
<time>2008-07-11T20:13:27Z</time>
</trkpt>
<trkpt lat="51.3803340" lon="6.3161140">
<ele>35.0000000</ele>
<time>2008-07-11T20:13:42Z</time>
</trkpt>
<trkpt lat="51.3806580" lon="6.3149910">
<ele>36.0000000</ele>
<time>2008-07-11T20:13:54Z</time>
</trkpt>
<trkpt lat="51.3810080" lon="6.3132210">
<ele>39.0000000</ele>
<time>2008-07-11T20:14:12Z</time>
</trkpt>
<trkpt lat="51.3810080" lon="6.3130480">
<ele>39.0000000</ele>
<time>2008-07-11T20:14:14Z</time>
</trkpt>
<trkpt lat="51.3809810" lon="6.3124860">
<ele>40.0000000</ele>
<time>2008-07-11T20:14:19Z</time>
</trkpt>
<trkpt lat="51.3807920" lon="6.3116660">
<ele>40.0000000</ele>
<time>2008-07-11T20:14:27Z</time>
</trkpt>
<trkpt lat="51.3807390" lon="6.3116230">
<ele>40.0000000</ele>
<time>2008-07-11T20:14:28Z</time>
</trkpt>
<trkpt lat="51.3797410" lon="6.3087300">
<ele>44.0000000</ele>
<time>2008-07-11T20:15:00Z</time>
</trkpt>
<trkpt lat="51.3813580" lon="6.3079530">
<ele>46.0000000</ele>
<time>2008-07-11T20:15:26Z</time>
</trkpt>
<trkpt lat="51.3823820" lon="6.3072190">
<ele>44.0000000</ele>
<time>2008-07-11T20:15:43Z</time>
</trkpt>
<trkpt lat="51.3828950" lon="6.3066570">
<ele>43.0000000</ele>
<time>2008-07-11T20:15:53Z</time>
</trkpt>
<trkpt lat="51.3830290" lon="6.3071320">
<ele>43.0000000</ele>
<time>2008-07-11T20:15:58Z</time>
</trkpt>
<trkpt lat="51.3836760" lon="6.3073480">
<ele>43.0000000</ele>
<time>2008-07-11T20:16:08Z</time>
</trkpt>
<trkpt lat="51.3867480" lon="6.3085140">
<ele>44.0000000</ele>
<time>2008-07-11T20:16:57Z</time>
</trkpt>
<trkpt lat="51.3887160" lon="6.3091620">
<ele>44.0000000</ele>
<time>2008-07-11T20:17:28Z</time>
</trkpt>
<trkpt lat="51.3897400" lon="6.3094640">
<ele>44.0000000</ele>
<time>2008-07-11T20:17:44Z</time>
</trkpt>
<trkpt lat="51.3903600" lon="6.3095920">
<ele>42.0000000</ele>
<time>2008-07-11T20:17:53Z</time>
</trkpt>
<trkpt lat="51.3908990" lon="6.3099370">
<ele>40.0000000</ele>
<time>2008-07-11T20:18:02Z</time>
</trkpt>
<trkpt lat="51.3915190" lon="6.3108440">
<ele>38.0000000</ele>
<time>2008-07-11T20:18:15Z</time>
</trkpt>
<trkpt lat="51.3918960" lon="6.3114490">
<ele>37.0000000</ele>
<time>2008-07-11T20:18:23Z</time>
</trkpt>
<trkpt lat="51.3922470" lon="6.3115790">
<ele>37.0000000</ele>
<time>2008-07-11T20:18:29Z</time>
</trkpt>
<trkpt lat="51.3949150" lon="6.3100240">
<ele>42.0000000</ele>
<time>2008-07-11T20:19:13Z</time>
</trkpt>
<trkpt lat="51.3967470" lon="6.3088570">
<ele>44.0000000</ele>
<time>2008-07-11T20:19:43Z</time>
</trkpt>
<trkpt lat="51.3980140" lon="6.3081660">
<ele>44.0000000</ele>
<time>2008-07-11T20:20:04Z</time>
</trkpt>
<trkpt lat="51.3984720" lon="6.3076910">
<ele>43.0000000</ele>
<time>2008-07-11T20:20:12Z</time>
</trkpt>
<trkpt lat="51.3988760" lon="6.3072590">
<ele>40.0000000</ele>
<time>2008-07-11T20:20:19Z</time>
</trkpt>
<trkpt lat="51.3991460" lon="6.3072160">
<ele>40.0000000</ele>
<time>2008-07-11T20:20:24Z</time>
</trkpt>
<trkpt lat="51.3998730" lon="6.3070000">
<ele>42.0000000</ele>
<time>2008-07-11T20:20:35Z</time>
</trkpt>
<trkpt lat="51.4004390" lon="6.3067840">
<ele>42.0000000</ele>
<time>2008-07-11T20:20:44Z</time>
</trkpt>
<trkpt lat="51.4016390" lon="6.3060480">
<ele>45.0000000</ele>
<time>2008-07-11T20:21:04Z</time>
</trkpt>
<trkpt lat="51.4020970" lon="6.3056590">
<ele>46.0000000</ele>
<time>2008-07-11T20:21:12Z</time>
</trkpt>
<trkpt lat="51.4033910" lon="6.3047950">
<ele>46.0000000</ele>
<time>2008-07-11T20:21:33Z</time>
</trkpt>
<trkpt lat="51.4088610" lon="6.3013390">
<ele>42.0000000</ele>
<time>2008-07-11T20:23:04Z</time>
</trkpt>
<trkpt lat="51.4089960" lon="6.3008640">
<ele>43.0000000</ele>
<time>2008-07-11T20:23:09Z</time>
</trkpt>
<trkpt lat="51.4089960" lon="6.3006910">
<ele>43.0000000</ele>
<time>2008-07-11T20:23:11Z</time>
</trkpt>
<trkpt lat="51.4096970" lon="6.3006050">
<ele>40.0000000</ele>
<time>2008-07-11T20:23:21Z</time>
</trkpt>
<trkpt lat="51.4111520" lon="6.2998700">
<ele>38.0000000</ele>
<time>2008-07-11T20:23:45Z</time>
</trkpt>
<trkpt lat="51.4137130" lon="6.2981850">
<ele>43.0000000</ele>
<time>2008-07-11T20:24:27Z</time>
</trkpt>
<trkpt lat="51.4159220" lon="6.2967590">
<ele>43.0000000</ele>
<time>2008-07-11T20:25:04Z</time>
</trkpt>
<trkpt lat="51.4166500" lon="6.2960240">
<ele>43.0000000</ele>
<time>2008-07-11T20:25:17Z</time>
</trkpt>
<trkpt lat="51.4177820" lon="6.2948140">
<ele>43.0000000</ele>
<time>2008-07-11T20:25:38Z</time>
</trkpt>
<trkpt lat="51.4189410" lon="6.2933450">
<ele>42.0000000</ele>
<time>2008-07-11T20:26:01Z</time>
</trkpt>
<trkpt lat="51.4185910" lon="6.2928260">
<ele>43.0000000</ele>
<time>2008-07-11T20:26:08Z</time>
</trkpt>
<trkpt lat="51.4177280" lon="6.2915300">
<ele>42.0000000</ele>
<time>2008-07-11T20:26:27Z</time>
</trkpt>
<trkpt lat="51.4172700" lon="6.2907950">
<ele>42.0000000</ele>
<time>2008-07-11T20:26:37Z</time>
</trkpt>
<trkpt lat="51.4168930" lon="6.2902760">
<ele>44.0000000</ele>
<time>2008-07-11T20:26:44Z</time>
</trkpt>
<trkpt lat="51.4152220" lon="6.2885050">
<ele>44.0000000</ele>
<time>2008-07-11T20:27:15Z</time>
</trkpt>
<trkpt lat="51.4148180" lon="6.2879430">
<ele>44.0000000</ele>
<time>2008-07-11T20:27:23Z</time>
</trkpt>
<trkpt lat="51.4144670" lon="6.2870780">
<ele>44.0000000</ele>
<time>2008-07-11T20:27:33Z</time>
</trkpt>
<trkpt lat="51.4144400" lon="6.2870350">
<ele>44.0000000</ele>
<time>2008-07-11T20:27:34Z</time>
</trkpt>
<trkpt lat="51.4142520" lon="6.2859980">
<ele>44.0000000</ele>
<time>2008-07-11T20:27:44Z</time>
</trkpt>
<trkpt lat="51.4139280" lon="6.2841400">
<ele>43.0000000</ele>
<time>2008-07-11T20:28:03Z</time>
</trkpt>
<trkpt lat="51.4138750" lon="6.2832750">
<ele>43.0000000</ele>
<time>2008-07-11T20:28:11Z</time>
</trkpt>
<trkpt lat="51.4132550" lon="6.2813740">
<ele>44.0000000</ele>
<time>2008-07-11T20:28:32Z</time>
</trkpt>
<trkpt lat="51.4132010" lon="6.2812880">
<ele>44.0000000</ele>
<time>2008-07-11T20:28:33Z</time>
</trkpt>
<trkpt lat="51.4120960" lon="6.2779600">
<ele>43.0000000</ele>
<time>2008-07-11T20:29:09Z</time>
</trkpt>
<trkpt lat="51.4119070" lon="6.2774850">
<ele>44.0000000</ele>
<time>2008-07-11T20:29:14Z</time>
</trkpt>
<trkpt lat="51.4115710" lon="6.2758400">
<ele>43.0000000</ele>
<time>2008-07-11T20:29:31Z</time>
</trkpt>
<trkpt lat="51.4111660" lon="6.2738960">
<ele>45.0000000</ele>
<time>2008-07-11T20:29:51Z</time>
</trkpt>
<trkpt lat="51.4108970" lon="6.2728590">
<ele>46.0000000</ele>
<time>2008-07-11T20:30:02Z</time>
</trkpt>
<trkpt lat="51.4105470" lon="6.2722970">
<ele>46.0000000</ele>
<time>2008-07-11T20:30:09Z</time>
</trkpt>
<trkpt lat="51.4101420" lon="6.2718220">
<ele>46.0000000</ele>
<time>2008-07-11T20:30:17Z</time>
</trkpt>
<trkpt lat="51.4076090" lon="6.2697480">
<ele>49.0000000</ele>
<time>2008-07-11T20:31:01Z</time>
</trkpt>
<trkpt lat="51.4070430" lon="6.2691000">
<ele>48.0000000</ele>
<time>2008-07-11T20:31:11Z</time>
</trkpt>
<trkpt lat="51.4060190" lon="6.2679770">
<ele>49.0000000</ele>
<time>2008-07-11T20:31:30Z</time>
</trkpt>
<trkpt lat="51.4060190" lon="6.2678910">
<ele>50.0000000</ele>
<time>2008-07-11T20:31:31Z</time>
</trkpt>
<trkpt lat="51.4042400" lon="6.2654710">
<ele>52.0000000</ele>
<time>2008-07-11T20:32:07Z</time>
</trkpt>
<trkpt lat="51.4037820" lon="6.2647800">
<ele>52.0000000</ele>
<time>2008-07-11T20:32:17Z</time>
</trkpt>
<trkpt lat="51.4034860" lon="6.2641320">
<ele>54.0000000</ele>
<time>2008-07-11T20:32:25Z</time>
</trkpt>
<trkpt lat="51.4034590" lon="6.2635700">
<ele>54.0000000</ele>
<time>2008-07-11T20:32:30Z</time>
</trkpt>
<trkpt lat="51.4034320" lon="6.2619720">
<ele>56.0000000</ele>
<time>2008-07-11T20:32:45Z</time>
</trkpt>
<trkpt lat="51.4035130" lon="6.2608920">
<ele>57.0000000</ele>
<time>2008-07-11T20:32:56Z</time>
</trkpt>
<trkpt lat="51.4036470" lon="6.2586890">
<ele>58.0000000</ele>
<time>2008-07-11T20:33:17Z</time>
</trkpt>
<trkpt lat="51.4038630" lon="6.2530290">
<ele>59.0000000</ele>
<time>2008-07-11T20:34:12Z</time>
</trkpt>
<trkpt lat="51.4037820" lon="6.2522080">
<ele>58.0000000</ele>
<time>2008-07-11T20:34:20Z</time>
</trkpt>
<trkpt lat="51.4034050" lon="6.2506100">
<ele>56.0000000</ele>
<time>2008-07-11T20:34:36Z</time>
</trkpt>
<trkpt lat="51.4027580" lon="6.2484500">
<ele>45.0000000</ele>
<time>2008-07-11T20:34:59Z</time>
</trkpt>
<trkpt lat="51.4025430" lon="6.2472830">
<ele>41.0000000</ele>
<time>2008-07-11T20:35:11Z</time>
</trkpt>
<trkpt lat="51.4022730" lon="6.2459010">
<ele>36.0000000</ele>
<time>2008-07-11T20:35:25Z</time>
</trkpt>
<trkpt lat="51.4021110" lon="6.2450800">
<ele>35.0000000</ele>
<time>2008-07-11T20:35:33Z</time>
</trkpt>
<trkpt lat="51.4020310" lon="6.2444750">
<ele>33.0000000</ele>
<time>2008-07-11T20:35:39Z</time>
</trkpt>
<trkpt lat="51.4022190" lon="6.2437840">
<ele>34.0000000</ele>
<time>2008-07-11T20:35:46Z</time>
</trkpt>
<trkpt lat="51.4025160" lon="6.2427040">
<ele>31.0000000</ele>
<time>2008-07-11T20:35:58Z</time>
</trkpt>
<trkpt lat="51.4026230" lon="6.2420560">
<ele>30.0000000</ele>
<time>2008-07-11T20:36:04Z</time>
</trkpt>
<trkpt lat="51.4021420" lon="6.2419720">
<ele>30.0000000</ele>
<time>2008-07-11T20:36:12Z</time>
</trkpt>
<trkpt lat="51.4016030" lon="6.2414110">
<ele>29.0000000</ele>
<time>2008-07-11T20:36:22Z</time>
</trkpt>
<trkpt lat="51.4008760" lon="6.2405040">
<ele>28.0000000</ele>
<time>2008-07-11T20:36:36Z</time>
</trkpt>
<trkpt lat="51.3994470" lon="6.2372210">
<ele>28.0000000</ele>
<time>2008-07-11T20:37:15Z</time>
</trkpt>
<trkpt lat="51.3988280" lon="6.2368760">
<ele>28.0000000</ele>
<time>2008-07-11T20:37:25Z</time>
</trkpt>
<trkpt lat="51.3981540" lon="6.2368760">
<ele>25.0000000</ele>
<time>2008-07-11T20:37:35Z</time>
</trkpt>
<trkpt lat="51.3973720" lon="6.2370910">
<ele>25.0000000</ele>
<time>2008-07-11T20:37:48Z</time>
</trkpt>
<trkpt lat="51.3945970" lon="6.2372640">
<ele>26.0000000</ele>
<time>2008-07-11T20:38:30Z</time>
</trkpt>
<trkpt lat="51.3940840" lon="6.2374800">
<ele>27.0000000</ele>
<time>2008-07-11T20:38:38Z</time>
</trkpt>
<trkpt lat="51.3924140" lon="6.2386900">
<ele>26.0000000</ele>
<time>2008-07-11T20:39:07Z</time>
</trkpt>
<trkpt lat="51.3909850" lon="6.2390780">
<ele>28.0000000</ele>
<time>2008-07-11T20:39:29Z</time>
</trkpt>
<trkpt lat="51.3897730" lon="6.2397260">
<ele>27.0000000</ele>
<time>2008-07-11T20:39:49Z</time>
</trkpt>
<trkpt lat="51.3879130" lon="6.2409790">
<ele>29.0000000</ele>
<time>2008-07-11T20:40:20Z</time>
</trkpt>
<trkpt lat="51.3878590" lon="6.2426660">
<ele>30.0000000</ele>
<time>2008-07-11T20:40:36Z</time>
</trkpt>
<trkpt lat="51.3878590" lon="6.2436160">
<ele>29.0000000</ele>
<time>2008-07-11T20:40:45Z</time>
</trkpt>
<trkpt lat="51.3879670" lon="6.2442200">
<ele>29.0000000</ele>
<time>2008-07-11T20:40:51Z</time>
</trkpt>
<trkpt lat="51.3883440" lon="6.2446950">
<ele>30.0000000</ele>
<time>2008-07-11T20:40:59Z</time>
</trkpt>
<trkpt lat="51.3890180" lon="6.2450840">
<ele>29.0000000</ele>
<time>2008-07-11T20:41:10Z</time>
</trkpt>
<trkpt lat="51.3895570" lon="6.2451270">
<ele>29.0000000</ele>
<time>2008-07-11T20:41:18Z</time>
</trkpt>
<trkpt lat="51.3898270" lon="6.2456880">
<ele>30.0000000</ele>
<time>2008-07-11T20:41:25Z</time>
</trkpt>
<trkpt lat="51.3900150" lon="6.2465950">
<ele>32.0000000</ele>
<time>2008-07-11T20:41:34Z</time>
</trkpt>
<trkpt lat="51.3899070" lon="6.2481060">
<ele>33.0000000</ele>
<time>2008-07-11T20:41:48Z</time>
</trkpt>
<trkpt lat="51.3898000" lon="6.2492290">
<ele>34.0000000</ele>
<time>2008-07-11T20:41:59Z</time>
</trkpt>
<trkpt lat="51.3892610" lon="6.2513880">
<ele>38.0000000</ele>
<time>2008-07-11T20:42:22Z</time>
</trkpt>
<trkpt lat="51.3892340" lon="6.2536760">
<ele>39.0000000</ele>
<time>2008-07-11T20:42:44Z</time>
</trkpt>
<trkpt lat="51.3885600" lon="6.2527270">
<ele>36.0000000</ele>
<time>2008-07-11T20:42:58Z</time>
</trkpt>
<trkpt lat="51.3879130" lon="6.2525540">
<ele>36.0000000</ele>
<time>2008-07-11T20:43:08Z</time>
</trkpt>
<trkpt lat="51.3874280" lon="6.2524670">
<ele>36.0000000</ele>
<time>2008-07-11T20:43:15Z</time>
</trkpt>
<trkpt lat="51.3844910" lon="6.2520790">
<ele>35.0000000</ele>
<time>2008-07-11T20:44:01Z</time>
</trkpt>
<trkpt lat="51.3766480" lon="6.2520360">
<ele>40.0000000</ele>
<time>2008-07-11T20:46:01Z</time>
</trkpt>
<trkpt lat="51.3764330" lon="6.2520790">
<ele>40.0000000</ele>
<time>2008-07-11T20:46:05Z</time>
</trkpt>
<trkpt lat="51.3762710" lon="6.2522520">
<ele>40.0000000</ele>
<time>2008-07-11T20:46:08Z</time>
</trkpt>
<trkpt lat="51.3760290" lon="6.2525960">
<ele>39.0000000</ele>
<time>2008-07-11T20:46:13Z</time>
</trkpt>
<trkpt lat="51.3757590" lon="6.2525960">
<ele>39.0000000</ele>
<time>2008-07-11T20:46:17Z</time>
</trkpt>
<trkpt lat="51.3751930" lon="6.2522510">
<ele>37.0000000</ele>
<time>2008-07-11T20:46:26Z</time>
</trkpt>
<trkpt lat="51.3746540" lon="6.2523810">
<ele>37.0000000</ele>
<time>2008-07-11T20:46:35Z</time>
</trkpt>
<trkpt lat="51.3706660" lon="6.2534600">
<ele>49.0000000</ele>
<time>2008-07-11T20:47:37Z</time>
</trkpt>
<trkpt lat="51.3701270" lon="6.2537190">
<ele>49.0000000</ele>
<time>2008-07-11T20:47:46Z</time>
</trkpt>
<trkpt lat="51.3688870" lon="6.2539780">
<ele>49.0000000</ele>
<time>2008-07-11T20:48:05Z</time>
</trkpt>
<trkpt lat="51.3667580" lon="6.2547980">
<ele>46.0000000</ele>
<time>2008-07-11T20:48:39Z</time>
</trkpt>
<trkpt lat="51.3665690" lon="6.2544090">
<ele>47.0000000</ele>
<time>2008-07-11T20:48:43Z</time>
</trkpt>
<trkpt lat="51.3662460" lon="6.2534600">
<ele>49.0000000</ele>
<time>2008-07-11T20:48:54Z</time>
</trkpt>
<trkpt lat="51.3655720" lon="6.2515600">
<ele>43.0000000</ele>
<time>2008-07-11T20:49:15Z</time>
</trkpt>
<trkpt lat="51.3631740" lon="6.2487540">
<ele>49.0000000</ele>
<time>2008-07-11T20:50:01Z</time>
</trkpt>
<trkpt lat="51.3613950" lon="6.2469410">
<ele>46.0000000</ele>
<time>2008-07-11T20:50:33Z</time>
</trkpt>
<trkpt lat="51.3591310" lon="6.2445670">
<ele>48.0000000</ele>
<time>2008-07-11T20:51:15Z</time>
</trkpt>
<trkpt lat="51.3574480" lon="6.2428030">
<ele>49.0000000</ele>
<time>2008-07-11T20:51:46Z</time>
</trkpt>
<trkpt lat="51.3556160" lon="6.2411200">
<ele>46.0000000</ele>
<time>2008-07-11T20:52:18Z</time>
</trkpt>
<trkpt lat="51.3545380" lon="6.2401270">
<ele>44.0000000</ele>
<time>2008-07-11T20:52:37Z</time>
</trkpt>
<trkpt lat="51.3544840" lon="6.2398250">
<ele>44.0000000</ele>
<time>2008-07-11T20:52:40Z</time>
</trkpt>
<trkpt lat="51.3538910" lon="6.2423280">
<ele>46.0000000</ele>
<time>2008-07-11T20:53:06Z</time>
</trkpt>
<trkpt lat="51.3527320" lon="6.2470750">
<ele>46.0000000</ele>
<time>2008-07-11T20:53:55Z</time>
</trkpt>
<trkpt lat="51.3523550" lon="6.2487150">
<ele>42.0000000</ele>
<time>2008-07-11T20:54:12Z</time>
</trkpt>
<trkpt lat="51.3503610" lon="6.2543240">
<ele>43.0000000</ele>
<time>2008-07-11T20:55:14Z</time>
</trkpt>
<trkpt lat="51.3498490" lon="6.2559210">
<ele>42.0000000</ele>
<time>2008-07-11T20:55:31Z</time>
</trkpt>
<trkpt lat="51.3491480" lon="6.2576900">
<ele>36.0000000</ele>
<time>2008-07-11T20:55:51Z</time>
</trkpt>
<trkpt lat="51.3486900" lon="6.2584240">
<ele>34.0000000</ele>
<time>2008-07-11T20:56:01Z</time>
</trkpt>
<trkpt lat="51.3474500" lon="6.2598050">
<ele>34.0000000</ele>
<time>2008-07-11T20:56:25Z</time>
</trkpt>
<trkpt lat="51.3464800" lon="6.2604950">
<ele>35.0000000</ele>
<time>2008-07-11T20:56:42Z</time>
</trkpt>
<trkpt lat="51.3455640" lon="6.2611370">
<ele>41.0000000</ele>
<time>2008-07-11T20:56:57Z</time>
</trkpt>
<trkpt lat="51.3450250" lon="6.2613530">
<ele>42.0000000</ele>
<time>2008-07-11T20:57:06Z</time>
</trkpt>
<trkpt lat="51.3445670" lon="6.2615250">
<ele>43.0000000</ele>
<time>2008-07-11T20:57:13Z</time>
</trkpt>
<trkpt lat="51.3438660" lon="6.2616120">
<ele>43.0000000</ele>
<time>2008-07-11T20:57:24Z</time>
</trkpt>
<trkpt lat="51.3432460" lon="6.2619140">
<ele>43.0000000</ele>
<time>2008-07-11T20:57:34Z</time>
</trkpt>
<trkpt lat="51.3429500" lon="6.2623450">
<ele>43.0000000</ele>
<time>2008-07-11T20:57:40Z</time>
</trkpt>
<trkpt lat="51.3428420" lon="6.2632080">
<ele>45.0000000</ele>
<time>2008-07-11T20:57:48Z</time>
</trkpt>
<trkpt lat="51.3425720" lon="6.2649340">
<ele>44.0000000</ele>
<time>2008-07-11T20:58:05Z</time>
</trkpt>
<trkpt lat="51.3423300" lon="6.2665300">
<ele>45.0000000</ele>
<time>2008-07-11T20:58:21Z</time>
</trkpt>
<trkpt lat="51.3421680" lon="6.2670470">
<ele>45.0000000</ele>
<time>2008-07-11T20:58:27Z</time>
</trkpt>
<trkpt lat="51.3405240" lon="6.2698950">
<ele>51.0000000</ele>
<time>2008-07-11T20:59:04Z</time>
</trkpt>
<trkpt lat="51.3396080" lon="6.2713620">
<ele>58.0000000</ele>
<time>2008-07-11T20:59:24Z</time>
</trkpt>
<trkpt lat="51.3390960" lon="6.2722670">
<ele>61.0000000</ele>
<time>2008-07-11T20:59:36Z</time>
</trkpt>
<trkpt lat="51.3382340" lon="6.2729150">
<ele>56.0000000</ele>
<time>2008-07-11T20:59:50Z</time>
</trkpt>
<trkpt lat="51.3374520" lon="6.2731300">
<ele>57.0000000</ele>
<time>2008-07-11T21:00:03Z</time>
</trkpt>
<trkpt lat="51.3360510" lon="6.2729150">
<ele>50.0000000</ele>
<time>2008-07-11T21:00:24Z</time>
</trkpt>
<trkpt lat="51.3355390" lon="6.2726560">
<ele>50.0000000</ele>
<time>2008-07-11T21:00:33Z</time>
</trkpt>
<trkpt lat="51.3354060" lon="6.2745150">
<ele>51.0000000</ele>
<time>2008-07-11T21:00:51Z</time>
</trkpt>
<trkpt lat="51.3354600" lon="6.2751620">
<ele>56.0000000</ele>
<time>2008-07-11T21:00:57Z</time>
</trkpt>
<trkpt lat="51.3351910" lon="6.2774050">
<ele>56.0000000</ele>
<time>2008-07-11T21:01:19Z</time>
</trkpt>
<trkpt lat="51.3337350" lon="6.2798200">
<ele>55.0000000</ele>
<time>2008-07-11T21:01:51Z</time>
</trkpt>
<trkpt lat="51.3333850" lon="6.2807690">
<ele>56.0000000</ele>
<time>2008-07-11T21:02:02Z</time>
</trkpt>
<trkpt lat="51.3326570" lon="6.2800790">
<ele>54.0000000</ele>
<time>2008-07-11T21:02:15Z</time>
</trkpt>
<trkpt lat="51.3321180" lon="6.2800790">
<ele>54.0000000</ele>
<time>2008-07-11T21:02:23Z</time>
</trkpt>
<trkpt lat="51.3317680" lon="6.2809420">
<ele>53.0000000</ele>
<time>2008-07-11T21:02:33Z</time>
</trkpt>
<trkpt lat="51.3317410" lon="6.2812000">
<ele>53.0000000</ele>
<time>2008-07-11T21:02:35Z</time>
</trkpt>
<trkpt lat="51.3315520" lon="6.2812000">
<ele>53.0000000</ele>
<time>2008-07-11T21:02:38Z</time>
</trkpt>
<trkpt lat="51.3289920" lon="6.2800790">
<ele>48.0000000</ele>
<time>2008-07-11T21:03:19Z</time>
</trkpt>
<trkpt lat="51.3285610" lon="6.2800790">
<ele>47.0000000</ele>
<time>2008-07-11T21:03:26Z</time>
</trkpt>
<trkpt lat="51.3280760" lon="6.2794750">
<ele>46.0000000</ele>
<time>2008-07-11T21:03:35Z</time>
</trkpt>
<trkpt lat="51.3250310" lon="6.2783540">
<ele>47.0000000</ele>
<time>2008-07-11T21:04:23Z</time>
</trkpt>
<trkpt lat="51.3224700" lon="6.2780090">
<ele>50.0000000</ele>
<time>2008-07-11T21:05:03Z</time>
</trkpt>
<trkpt lat="51.3215540" lon="6.2778360">
<ele>49.0000000</ele>
<time>2008-07-11T21:05:17Z</time>
</trkpt>
<trkpt lat="51.3199640" lon="6.2774910">
<ele>49.0000000</ele>
<time>2008-07-11T21:05:42Z</time>
</trkpt>
<trkpt lat="51.3189400" lon="6.2774050">
<ele>49.0000000</ele>
<time>2008-07-11T21:05:58Z</time>
</trkpt>
<trkpt lat="51.3126740" lon="6.2785260">
<ele>53.0000000</ele>
<time>2008-07-11T21:07:35Z</time>
</trkpt>
<trkpt lat="51.3120550" lon="6.2784830">
<ele>53.0000000</ele>
<time>2008-07-11T21:07:44Z</time>
</trkpt>
<trkpt lat="51.3117040" lon="6.2783100">
<ele>53.0000000</ele>
<time>2008-07-11T21:07:50Z</time>
</trkpt>
<trkpt lat="51.3081200" lon="6.2756370">
<ele>49.0000000</ele>
<time>2008-07-11T21:08:51Z</time>
</trkpt>
<trkpt lat="51.3080120" lon="6.2754650">
<ele>49.0000000</ele>
<time>2008-07-11T21:08:53Z</time>
</trkpt>
<trkpt lat="51.3080120" lon="6.2750340">
<ele>48.0000000</ele>
<time>2008-07-11T21:08:57Z</time>
</trkpt>
<trkpt lat="51.3086320" lon="6.2726190">
<ele>45.0000000</ele>
<time>2008-07-11T21:09:22Z</time>
</trkpt>
<trkpt lat="51.3083620" lon="6.2720590">
<ele>45.0000000</ele>
<time>2008-07-11T21:09:29Z</time>
</trkpt>
<trkpt lat="51.3074190" lon="6.2720150">
<ele>45.0000000</ele>
<time>2008-07-11T21:09:44Z</time>
</trkpt>
<trkpt lat="51.3066380" lon="6.2721020">
<ele>45.0000000</ele>
<time>2008-07-11T21:09:56Z</time>
</trkpt>
<trkpt lat="51.3061260" lon="6.2717570">
<ele>44.0000000</ele>
<time>2008-07-11T21:10:04Z</time>
</trkpt>
<trkpt lat="51.3058290" lon="6.2719720">
<ele>44.0000000</ele>
<time>2008-07-11T21:10:09Z</time>
</trkpt>
<trkpt lat="51.3042800" lon="6.2723170">
<ele>48.0000000</ele>
<time>2008-07-11T21:10:34Z</time>
</trkpt>
<trkpt lat="51.3037950" lon="6.2698600">
<ele>45.0000000</ele>
<time>2008-07-11T21:10:58Z</time>
</trkpt>
<trkpt lat="51.3035250" lon="6.2683950">
<ele>45.0000000</ele>
<time>2008-07-11T21:11:13Z</time>
</trkpt>
<trkpt lat="51.3031210" lon="6.2661960">
<ele>44.0000000</ele>
<time>2008-07-11T21:11:35Z</time>
</trkpt>
<trkpt lat="51.3026360" lon="6.2637820">
<ele>44.0000000</ele>
<time>2008-07-11T21:11:59Z</time>
</trkpt>
<trkpt lat="51.3026360" lon="6.2636100">
<ele>43.0000000</ele>
<time>2008-07-11T21:12:01Z</time>
</trkpt>
<trkpt lat="51.3024740" lon="6.2627910">
<ele>43.0000000</ele>
<time>2008-07-11T21:12:09Z</time>
</trkpt>
<trkpt lat="51.3024740" lon="6.2626620">
<ele>43.0000000</ele>
<time>2008-07-11T21:12:11Z</time>
</trkpt>
<trkpt lat="51.3021510" lon="6.2617570">
<ele>43.0000000</ele>
<time>2008-07-11T21:12:21Z</time>
</trkpt>
<trkpt lat="51.3021510" lon="6.2616700">
<ele>43.0000000</ele>
<time>2008-07-11T21:12:22Z</time>
</trkpt>
<trkpt lat="51.3018550" lon="6.2609380">
<ele>43.0000000</ele>
<time>2008-07-11T21:12:30Z</time>
</trkpt>
<trkpt lat="51.2999680" lon="6.2584810">
<ele>45.0000000</ele>
<time>2008-07-11T21:13:07Z</time>
</trkpt>
<trkpt lat="51.2987820" lon="6.2572310">
<ele>45.0000000</ele>
<time>2008-07-11T21:13:29Z</time>
</trkpt>
<trkpt lat="51.2976770" lon="6.2560670">
<ele>47.0000000</ele>
<time>2008-07-11T21:13:50Z</time>
</trkpt>
<trkpt lat="51.2962490" lon="6.2547310">
<ele>51.0000000</ele>
<time>2008-07-11T21:14:15Z</time>
</trkpt>
<trkpt lat="51.2957640" lon="6.2542130">
<ele>50.0000000</ele>
<time>2008-07-11T21:14:24Z</time>
</trkpt>
<trkpt lat="51.2958720" lon="6.2533950">
<ele>49.0000000</ele>
<time>2008-07-11T21:14:32Z</time>
</trkpt>
<trkpt lat="51.2958990" lon="6.2526620">
<ele>48.0000000</ele>
<time>2008-07-11T21:14:39Z</time>
</trkpt>
<trkpt lat="51.2964650" lon="6.2518000">
<ele>46.0000000</ele>
<time>2008-07-11T21:14:51Z</time>
</trkpt>
<trkpt lat="51.2972190" lon="6.2499900">
<ele>45.0000000</ele>
<time>2008-07-11T21:15:12Z</time>
</trkpt>
<trkpt lat="51.2975970" lon="6.2492140">
<ele>47.0000000</ele>
<time>2008-07-11T21:15:22Z</time>
</trkpt>
<trkpt lat="51.2976240" lon="6.2484820">
<ele>49.0000000</ele>
<time>2008-07-11T21:15:29Z</time>
</trkpt>
<trkpt lat="51.2980550" lon="6.2471890">
<ele>50.0000000</ele>
<time>2008-07-11T21:15:43Z</time>
</trkpt>
<trkpt lat="51.2980550" lon="6.2470590">
<ele>49.0000000</ele>
<time>2008-07-11T21:15:44Z</time>
</trkpt>
<trkpt lat="51.2977320" lon="6.2465420">
<ele>51.0000000</ele>
<time>2008-07-11T21:15:51Z</time>
</trkpt>
<trkpt lat="51.2977320" lon="6.2463700">
<ele>51.0000000</ele>
<time>2008-07-11T21:15:53Z</time>
</trkpt>
<trkpt lat="51.2974350" lon="6.2448180">
<ele>51.0000000</ele>
<time>2008-07-11T21:16:08Z</time>
</trkpt>
<trkpt lat="51.2974350" lon="6.2447320">
<ele>51.0000000</ele>
<time>2008-07-11T21:16:09Z</time>
</trkpt>
<trkpt lat="51.2973000" lon="6.2430940">
<ele>53.0000000</ele>
<time>2008-07-11T21:16:25Z</time>
</trkpt>
<trkpt lat="51.2968960" lon="6.2403360">
<ele>50.0000000</ele>
<time>2008-07-11T21:16:52Z</time>
</trkpt>
<trkpt lat="51.2968960" lon="6.2402500">
<ele>50.0000000</ele>
<time>2008-07-11T21:16:53Z</time>
</trkpt>
<trkpt lat="51.2965460" lon="6.2376640">
<ele>49.0000000</ele>
<time>2008-07-11T21:17:19Z</time>
</trkpt>
<trkpt lat="51.2965190" lon="6.2370180">
<ele>48.0000000</ele>
<time>2008-07-11T21:17:25Z</time>
</trkpt>
<trkpt lat="51.2967880" lon="6.2359400">
<ele>47.0000000</ele>
<time>2008-07-11T21:17:36Z</time>
</trkpt>
<trkpt lat="51.2970040" lon="6.2349490">
<ele>47.0000000</ele>
<time>2008-07-11T21:17:46Z</time>
</trkpt>
<trkpt lat="51.2973810" lon="6.2336130">
<ele>46.0000000</ele>
<time>2008-07-11T21:18:00Z</time>
</trkpt>
<trkpt lat="51.2975430" lon="6.2332250">
<ele>46.0000000</ele>
<time>2008-07-11T21:18:05Z</time>
</trkpt>
<trkpt lat="51.2978120" lon="6.2332250">
<ele>46.0000000</ele>
<time>2008-07-11T21:18:09Z</time>
</trkpt>
<trkpt lat="51.2974890" lon="6.2303810">
<ele>47.0000000</ele>
<time>2008-07-11T21:18:37Z</time>
</trkpt>
<trkpt lat="51.2973540" lon="6.2297340">
<ele>47.0000000</ele>
<time>2008-07-11T21:18:43Z</time>
</trkpt>
<trkpt lat="51.2973540" lon="6.2296480">
<ele>47.0000000</ele>
<time>2008-07-11T21:18:44Z</time>
</trkpt>
<trkpt lat="51.2969500" lon="6.2285700">
<ele>47.0000000</ele>
<time>2008-07-11T21:18:56Z</time>
</trkpt>
<trkpt lat="51.2953870" lon="6.2253380">
<ele>48.0000000</ele>
<time>2008-07-11T21:19:36Z</time>
</trkpt>
<trkpt lat="51.2950640" lon="6.2240450">
<ele>48.0000000</ele>
<time>2008-07-11T21:19:49Z</time>
</trkpt>
<trkpt lat="51.2949290" lon="6.2233560">
<ele>48.0000000</ele>
<time>2008-07-11T21:19:56Z</time>
</trkpt>
<trkpt lat="51.2946860" lon="6.2228820">
<ele>48.0000000</ele>
<time>2008-07-11T21:20:02Z</time>
</trkpt>
<trkpt lat="51.2936350" lon="6.2223640">
<ele>48.0000000</ele>
<time>2008-07-11T21:20:19Z</time>
</trkpt>
<trkpt lat="51.2926110" lon="6.2218470">
<ele>48.0000000</ele>
<time>2008-07-11T21:20:35Z</time>
</trkpt>
<trkpt lat="51.2920180" lon="6.2212440">
<ele>49.0000000</ele>
<time>2008-07-11T21:20:46Z</time>
</trkpt>
<trkpt lat="51.2915600" lon="6.2207700">
<ele>49.0000000</ele>
<time>2008-07-11T21:20:55Z</time>
</trkpt>
<trkpt lat="51.2911290" lon="6.2200370">
<ele>50.0000000</ele>
<time>2008-07-11T21:21:04Z</time>
</trkpt>
<trkpt lat="51.2904820" lon="6.2181410">
<ele>49.0000000</ele>
<time>2008-07-11T21:21:25Z</time>
</trkpt>
<trkpt lat="51.2899160" lon="6.2167190">
<ele>50.0000000</ele>
<time>2008-07-11T21:21:41Z</time>
</trkpt>
<trkpt lat="51.2894730" lon="6.2158100">
<ele>50.0000000</ele>
<time>2008-07-11T21:21:52Z</time>
</trkpt>
<trkpt lat="51.2882870" lon="6.2129230">
<ele>52.0000000</ele>
<time>2008-07-11T21:22:26Z</time>
</trkpt>
<trkpt lat="51.2868320" lon="6.2097350">
<ele>53.0000000</ele>
<time>2008-07-11T21:23:04Z</time>
</trkpt>
<trkpt lat="51.2858610" lon="6.2071070">
<ele>54.0000000</ele>
<time>2008-07-11T21:23:33Z</time>
</trkpt>
<trkpt lat="51.2848910" lon="6.2045220">
<ele>53.0000000</ele>
<time>2008-07-11T21:24:02Z</time>
</trkpt>
<trkpt lat="51.2848910" lon="6.2044350">
<ele>53.0000000</ele>
<time>2008-07-11T21:24:03Z</time>
</trkpt>
<trkpt lat="51.2836790" lon="6.2000840">
<ele>53.0000000</ele>
<time>2008-07-11T21:24:49Z</time>
</trkpt>
<trkpt lat="51.2829510" lon="6.1992650">
<ele>52.0000000</ele>
<time>2008-07-11T21:25:02Z</time>
</trkpt>
<trkpt lat="51.2818730" lon="6.1975850">
<ele>52.0000000</ele>
<time>2008-07-11T21:25:26Z</time>
</trkpt>
<trkpt lat="51.2814420" lon="6.1966800">
<ele>52.0000000</ele>
<time>2008-07-11T21:25:37Z</time>
</trkpt>
<trkpt lat="51.2813070" lon="6.1961200">
<ele>52.0000000</ele>
<time>2008-07-11T21:25:42Z</time>
</trkpt>
<trkpt lat="51.2813070" lon="6.1959910">
<ele>52.0000000</ele>
<time>2008-07-11T21:25:44Z</time>
</trkpt>
<trkpt lat="51.2813070" lon="6.1949570">
<ele>52.0000000</ele>
<time>2008-07-11T21:25:54Z</time>
</trkpt>
<trkpt lat="51.2810910" lon="6.1945260">
<ele>53.0000000</ele>
<time>2008-07-11T21:25:59Z</time>
</trkpt>
<trkpt lat="51.2810640" lon="6.1944400">
<ele>53.0000000</ele>
<time>2008-07-11T21:26:00Z</time>
</trkpt>
<trkpt lat="51.2806870" lon="6.1937940">
<ele>53.0000000</ele>
<time>2008-07-11T21:26:08Z</time>
</trkpt>
<trkpt lat="51.2795280" lon="6.1933200">
<ele>56.0000000</ele>
<time>2008-07-11T21:26:27Z</time>
</trkpt>
<trkpt lat="51.2774260" lon="6.1924580">
<ele>57.0000000</ele>
<time>2008-07-11T21:27:00Z</time>
</trkpt>
<trkpt lat="51.2713360" lon="6.1881500">
<ele>55.0000000</ele>
<time>2008-07-11T21:28:43Z</time>
</trkpt>
<trkpt lat="51.2709050" lon="6.1879340">
<ele>57.0000000</ele>
<time>2008-07-11T21:28:50Z</time>
</trkpt>
<trkpt lat="51.2699750" lon="6.1879390">
<ele>54.0000000</ele>
<time>2008-07-11T21:29:04Z</time>
</trkpt>
<trkpt lat="51.2690310" lon="6.1878530">
<ele>55.0000000</ele>
<time>2008-07-11T21:29:19Z</time>
</trkpt>
<trkpt lat="51.2684390" lon="6.1875940">
<ele>55.0000000</ele>
<time>2008-07-11T21:29:28Z</time>
</trkpt>
<trkpt lat="51.2681420" lon="6.1870770">
<ele>55.0000000</ele>
<time>2008-07-11T21:29:35Z</time>
</trkpt>
<trkpt lat="51.2676030" lon="6.1877230">
<ele>56.0000000</ele>
<time>2008-07-11T21:29:46Z</time>
</trkpt>
<trkpt lat="51.2671450" lon="6.1878530">
<ele>56.0000000</ele>
<time>2008-07-11T21:29:53Z</time>
</trkpt>
<trkpt lat="51.2662020" lon="6.1877660">
<ele>62.0000000</ele>
<time>2008-07-11T21:30:07Z</time>
</trkpt>
<trkpt lat="51.2650160" lon="6.1877660">
<ele>60.0000000</ele>
<time>2008-07-11T21:30:26Z</time>
</trkpt>
<trkpt lat="51.2629680" lon="6.1877660">
<ele>58.0000000</ele>
<time>2008-07-11T21:30:57Z</time>
</trkpt>
<trkpt lat="51.2629140" lon="6.1876800">
<ele>58.0000000</ele>
<time>2008-07-11T21:30:58Z</time>
</trkpt>
<trkpt lat="51.2616200" lon="6.1876800">
<ele>59.0000000</ele>
<time>2008-07-11T21:31:18Z</time>
</trkpt>
<trkpt lat="51.2607310" lon="6.1873790">
<ele>60.0000000</ele>
<time>2008-07-11T21:31:32Z</time>
</trkpt>
<trkpt lat="51.2596800" lon="6.1869050">
<ele>60.0000000</ele>
<time>2008-07-11T21:31:49Z</time>
</trkpt>
<trkpt lat="51.2581170" lon="6.1853110">
<ele>61.0000000</ele>
<time>2008-07-11T21:32:18Z</time>
</trkpt>
<trkpt lat="51.2580630" lon="6.1860440">
<ele>60.0000000</ele>
<time>2008-07-11T21:32:25Z</time>
</trkpt>
<trkpt lat="51.2583060" lon="6.1880680">
<ele>60.0000000</ele>
<time>2008-07-11T21:32:45Z</time>
</trkpt>
<trkpt lat="51.2583060" lon="6.1889720">
<ele>60.0000000</ele>
<time>2008-07-11T21:32:53Z</time>
</trkpt>
<trkpt lat="51.2587100" lon="6.1914700">
<ele>58.0000000</ele>
<time>2008-07-11T21:33:18Z</time>
</trkpt>
<trkpt lat="51.2587370" lon="6.1933220">
<ele>57.0000000</ele>
<time>2008-07-11T21:33:36Z</time>
</trkpt>
<trkpt lat="51.2589790" lon="6.1990070">
<ele>56.0000000</ele>
<time>2008-07-11T21:34:31Z</time>
</trkpt>
<trkpt lat="51.2589790" lon="6.1996100">
<ele>57.0000000</ele>
<time>2008-07-11T21:34:37Z</time>
</trkpt>
<trkpt lat="51.2588990" lon="6.2000840">
<ele>57.0000000</ele>
<time>2008-07-11T21:34:42Z</time>
</trkpt>
<trkpt lat="51.2587910" lon="6.2006870">
<ele>56.0000000</ele>
<time>2008-07-11T21:34:48Z</time>
</trkpt>
<trkpt lat="51.2588450" lon="6.2019790">
<ele>55.0000000</ele>
<time>2008-07-11T21:35:00Z</time>
</trkpt>
<trkpt lat="51.2588990" lon="6.2034010">
<ele>55.0000000</ele>
<time>2008-07-11T21:35:14Z</time>
</trkpt>
<trkpt lat="51.2585480" lon="6.2050370">
<ele>55.0000000</ele>
<time>2008-07-11T21:35:30Z</time>
</trkpt>
<trkpt lat="51.2579420" lon="6.2079260">
<ele>52.0000000</ele>
<time>2008-07-11T21:36:00Z</time>
</trkpt>
<trkpt lat="51.2574030" lon="6.2102510">
<ele>53.0000000</ele>
<time>2008-07-11T21:36:24Z</time>
</trkpt>
<trkpt lat="51.2571610" lon="6.2110690">
<ele>54.0000000</ele>
<time>2008-07-11T21:36:32Z</time>
</trkpt>
<trkpt lat="51.2568370" lon="6.2119300">
<ele>54.0000000</ele>
<time>2008-07-11T21:36:42Z</time>
</trkpt>
<trkpt lat="51.2562710" lon="6.2129640">
<ele>52.0000000</ele>
<time>2008-07-11T21:36:55Z</time>
</trkpt>
<trkpt lat="51.2558400" lon="6.2136960">
<ele>50.0000000</ele>
<time>2008-07-11T21:37:05Z</time>
</trkpt>
<trkpt lat="51.2545730" lon="6.2143410">
<ele>51.0000000</ele>
<time>2008-07-11T21:37:26Z</time>
</trkpt>
<trkpt lat="51.2540340" lon="6.2149870">
<ele>53.0000000</ele>
<time>2008-07-11T21:37:36Z</time>
</trkpt>
<trkpt lat="51.2534140" lon="6.2155040">
<ele>53.0000000</ele>
<time>2008-07-11T21:37:47Z</time>
</trkpt>
<trkpt lat="51.2529290" lon="6.2155900">
<ele>53.0000000</ele>
<time>2008-07-11T21:37:54Z</time>
</trkpt>
<trkpt lat="51.2522830" lon="6.2156330">
<ele>53.0000000</ele>
<time>2008-07-11T21:38:04Z</time>
</trkpt>
<trkpt lat="51.2520940" lon="6.2156760">
<ele>53.0000000</ele>
<time>2008-07-11T21:38:07Z</time>
</trkpt>
<trkpt lat="51.2514200" lon="6.2165800">
<ele>57.0000000</ele>
<time>2008-07-11T21:38:21Z</time>
</trkpt>
<trkpt lat="51.2506660" lon="6.2172260">
<ele>52.0000000</ele>
<time>2008-07-11T21:38:34Z</time>
</trkpt>
<trkpt lat="51.2501810" lon="6.2177430">
<ele>48.0000000</ele>
<time>2008-07-11T21:38:43Z</time>
</trkpt>
<trkpt lat="51.2486980" lon="6.2206700">
<ele>50.0000000</ele>
<time>2008-07-11T21:39:19Z</time>
</trkpt>
<trkpt lat="51.2471620" lon="6.2236840">
<ele>50.0000000</ele>
<time>2008-07-11T21:39:57Z</time>
</trkpt>
<trkpt lat="51.2468120" lon="6.2273010">
<ele>51.0000000</ele>
<time>2008-07-11T21:40:32Z</time>
</trkpt>
<trkpt lat="51.2464350" lon="6.2313050">
<ele>61.0000000</ele>
<time>2008-07-11T21:41:11Z</time>
</trkpt>
<trkpt lat="51.2461920" lon="6.2329840">
<ele>62.0000000</ele>
<time>2008-07-11T21:41:27Z</time>
</trkpt>
<trkpt lat="51.2460300" lon="6.2339740">
<ele>63.0000000</ele>
<time>2008-07-11T21:41:37Z</time>
</trkpt>
<trkpt lat="51.2452760" lon="6.2356530">
<ele>60.0000000</ele>
<time>2008-07-11T21:41:57Z</time>
</trkpt>
<trkpt lat="51.2440090" lon="6.2381070">
<ele>58.0000000</ele>
<time>2008-07-11T21:42:28Z</time>
</trkpt>
<trkpt lat="51.2433810" lon="6.2387920">
<ele>55.0000000</ele>
<time>2008-07-11T21:42:40Z</time>
</trkpt>
<trkpt lat="51.2424640" lon="6.2395670">
<ele>52.0000000</ele>
<time>2008-07-11T21:42:56Z</time>
</trkpt>
<trkpt lat="51.2419790" lon="6.2399970">
<ele>53.0000000</ele>
<time>2008-07-11T21:43:05Z</time>
</trkpt>
<trkpt lat="51.2414670" lon="6.2407720">
<ele>52.0000000</ele>
<time>2008-07-11T21:43:16Z</time>
</trkpt>
<trkpt lat="51.2410630" lon="6.2419340">
<ele>53.0000000</ele>
<time>2008-07-11T21:43:29Z</time>
</trkpt>
<trkpt lat="51.2405780" lon="6.2433970">
<ele>53.0000000</ele>
<time>2008-07-11T21:43:44Z</time>
</trkpt>
<trkpt lat="51.2402280" lon="6.2440000">
<ele>55.0000000</ele>
<time>2008-07-11T21:43:52Z</time>
</trkpt>
<trkpt lat="51.2384220" lon="6.2455490">
<ele>51.0000000</ele>
<time>2008-07-11T21:44:24Z</time>
</trkpt>
<trkpt lat="51.2378020" lon="6.2466250">
<ele>50.0000000</ele>
<time>2008-07-11T21:44:38Z</time>
</trkpt>
<trkpt lat="51.2362120" lon="6.2480030">
<ele>57.0000000</ele>
<time>2008-07-11T21:45:06Z</time>
</trkpt>
<trkpt lat="51.2348910" lon="6.2491220">
<ele>57.0000000</ele>
<time>2008-07-11T21:45:29Z</time>
</trkpt>
<trkpt lat="51.2346220" lon="6.2486910">
<ele>57.0000000</ele>
<time>2008-07-11T21:45:35Z</time>
</trkpt>
<trkpt lat="51.2341640" lon="6.2484760">
<ele>55.0000000</ele>
<time>2008-07-11T21:45:42Z</time>
</trkpt>
<trkpt lat="51.2333010" lon="6.2485190">
<ele>53.0000000</ele>
<time>2008-07-11T21:45:55Z</time>
</trkpt>
<trkpt lat="51.2328430" lon="6.2490790">
<ele>51.0000000</ele>
<time>2008-07-11T21:46:04Z</time>
</trkpt>
<trkpt lat="51.2327890" lon="6.2497680">
<ele>52.0000000</ele>
<time>2008-07-11T21:46:11Z</time>
</trkpt>
<trkpt lat="51.2325470" lon="6.2499830">
<ele>52.0000000</ele>
<time>2008-07-11T21:46:15Z</time>
</trkpt>
<trkpt lat="51.2310920" lon="6.2502840">
<ele>55.0000000</ele>
<time>2008-07-11T21:46:38Z</time>
</trkpt>
<trkpt lat="51.2303370" lon="6.2504130">
<ele>57.0000000</ele>
<time>2008-07-11T21:46:50Z</time>
</trkpt>
<trkpt lat="51.2299060" lon="6.2508440">
<ele>57.0000000</ele>
<time>2008-07-11T21:46:57Z</time>
</trkpt>
<trkpt lat="51.2287200" lon="6.2527800">
<ele>51.0000000</ele>
<time>2008-07-11T21:47:24Z</time>
</trkpt>
<trkpt lat="51.2280190" lon="6.2539430">
<ele>53.0000000</ele>
<time>2008-07-11T21:47:39Z</time>
</trkpt>
<trkpt lat="51.2280460" lon="6.2539860">
<ele>53.0000000</ele>
<time>2008-07-11T21:47:40Z</time>
</trkpt>
<trkpt lat="51.2267530" lon="6.2555350">
<ele>58.0000000</ele>
<time>2008-07-11T21:48:05Z</time>
</trkpt>
<trkpt lat="51.2261330" lon="6.2564820">
<ele>59.0000000</ele>
<time>2008-07-11T21:48:18Z</time>
</trkpt>
<trkpt lat="51.2255940" lon="6.2578160">
<ele>59.0000000</ele>
<time>2008-07-11T21:48:33Z</time>
</trkpt>
<trkpt lat="51.2252170" lon="6.2592800">
<ele>56.0000000</ele>
<time>2008-07-11T21:48:48Z</time>
</trkpt>
<trkpt lat="51.2249750" lon="6.2599290">
<ele>54.0000000</ele>
<time>2008-07-11T21:48:56Z</time>
</trkpt>
<trkpt lat="51.2244630" lon="6.2604880">
<ele>56.0000000</ele>
<time>2008-07-11T21:49:05Z</time>
</trkpt>
<trkpt lat="51.2226300" lon="6.2621660">
<ele>59.0000000</ele>
<time>2008-07-11T21:49:38Z</time>
</trkpt>
<trkpt lat="51.2221990" lon="6.2627690">
<ele>59.0000000</ele>
<time>2008-07-11T21:49:47Z</time>
</trkpt>
<trkpt lat="51.2210400" lon="6.2654790">
<ele>63.0000000</ele>
<time>2008-07-11T21:50:18Z</time>
</trkpt>
<trkpt lat="51.2206090" lon="6.2659960">
<ele>63.0000000</ele>
<time>2008-07-11T21:50:26Z</time>
</trkpt>
<trkpt lat="51.2198000" lon="6.2668990">
<ele>65.0000000</ele>
<time>2008-07-11T21:50:42Z</time>
</trkpt>
<trkpt lat="51.2181560" lon="6.2678030">
<ele>65.0000000</ele>
<time>2008-07-11T21:51:08Z</time>
</trkpt>
<trkpt lat="51.2169440" lon="6.2690500">
<ele>60.0000000</ele>
<time>2008-07-11T21:51:31Z</time>
</trkpt>
<trkpt lat="51.2158930" lon="6.2702120">
<ele>62.0000000</ele>
<time>2008-07-11T21:51:50Z</time>
</trkpt>
<trkpt lat="51.2150030" lon="6.2712880">
<ele>65.0000000</ele>
<time>2008-07-11T21:52:07Z</time>
</trkpt>
<trkpt lat="51.2143030" lon="6.2725780">
<ele>64.0000000</ele>
<time>2008-07-11T21:52:24Z</time>
</trkpt>
<trkpt lat="51.2146260" lon="6.2730520">
<ele>66.0000000</ele>
<time>2008-07-11T21:52:31Z</time>
</trkpt>
<trkpt lat="51.2139790" lon="6.2742130">
<ele>65.0000000</ele>
<time>2008-07-11T21:52:46Z</time>
</trkpt>
<trkpt lat="51.2138980" lon="6.2741270">
<ele>65.0000000</ele>
<time>2008-07-11T21:52:47Z</time>
</trkpt>
<trkpt lat="51.2137640" lon="6.2745150">
<ele>65.0000000</ele>
<time>2008-07-11T21:52:51Z</time>
</trkpt>
<trkpt lat="51.2133060" lon="6.2752030">
<ele>64.0000000</ele>
<time>2008-07-11T21:53:01Z</time>
</trkpt>
<trkpt lat="51.2136560" lon="6.2762790">
<ele>64.0000000</ele>
<time>2008-07-11T21:53:13Z</time>
</trkpt>
<trkpt lat="51.2140060" lon="6.2774400">
<ele>65.0000000</ele>
<time>2008-07-11T21:53:25Z</time>
</trkpt>
<trkpt lat="51.2142760" lon="6.2783440">
<ele>66.0000000</ele>
<time>2008-07-11T21:53:35Z</time>
</trkpt>
<trkpt lat="51.2144910" lon="6.2787740">
<ele>66.0000000</ele>
<time>2008-07-11T21:53:40Z</time>
</trkpt>
<trkpt lat="51.2150570" lon="6.2811400">
<ele>71.0000000</ele>
<time>2008-07-11T21:54:05Z</time>
</trkpt>
<trkpt lat="51.2151110" lon="6.2817000">
<ele>73.0000000</ele>
<time>2008-07-11T21:54:10Z</time>
</trkpt>
<trkpt lat="51.2153270" lon="6.2822590">
<ele>71.0000000</ele>
<time>2008-07-11T21:54:16Z</time>
</trkpt>
<trkpt lat="51.2156230" lon="6.2833780">
<ele>70.0000000</ele>
<time>2008-07-11T21:54:28Z</time>
</trkpt>
<trkpt lat="51.2164860" lon="6.2853140">
<ele>69.0000000</ele>
<time>2008-07-11T21:54:51Z</time>
</trkpt>
<trkpt lat="51.2172670" lon="6.2870350">
<ele>68.0000000</ele>
<time>2008-07-11T21:55:12Z</time>
</trkpt>
<trkpt lat="51.2176710" lon="6.2880670">
<ele>68.0000000</ele>
<time>2008-07-11T21:55:23Z</time>
</trkpt>
<trkpt lat="51.2178600" lon="6.2889710">
<ele>68.0000000</ele>
<time>2008-07-11T21:55:33Z</time>
</trkpt>
<trkpt lat="51.2178600" lon="6.2895730">
<ele>68.0000000</ele>
<time>2008-07-11T21:55:38Z</time>
</trkpt>
<trkpt lat="51.2181700" lon="6.2905630">
<ele>66.0000000</ele>
<time>2008-07-11T21:55:49Z</time>
</trkpt>
<trkpt lat="51.2186550" lon="6.2915950">
<ele>66.0000000</ele>
<time>2008-07-11T21:56:02Z</time>
</trkpt>
<trkpt lat="51.2189790" lon="6.2924560">
<ele>66.0000000</ele>
<time>2008-07-11T21:56:11Z</time>
</trkpt>
<trkpt lat="51.2191130" lon="6.2935320">
<ele>67.0000000</ele>
<time>2008-07-11T21:56:22Z</time>
</trkpt>
<trkpt lat="51.2191940" lon="6.2950800">
<ele>68.0000000</ele>
<time>2008-07-11T21:56:37Z</time>
</trkpt>
<trkpt lat="51.2191940" lon="6.2972320">
<ele>69.0000000</ele>
<time>2008-07-11T21:56:58Z</time>
</trkpt>
<trkpt lat="51.2193290" lon="6.2980490">
<ele>69.0000000</ele>
<time>2008-07-11T21:57:06Z</time>
</trkpt>
<trkpt lat="51.2196250" lon="6.2988670">
<ele>68.0000000</ele>
<time>2008-07-11T21:57:15Z</time>
</trkpt>
<trkpt lat="51.2197060" lon="6.2999420">
<ele>68.0000000</ele>
<time>2008-07-11T21:57:25Z</time>
</trkpt>
<trkpt lat="51.2197330" lon="6.2999850">
<ele>68.0000000</ele>
<time>2008-07-11T21:57:26Z</time>
</trkpt>
<trkpt lat="51.2198140" lon="6.3013190">
<ele>67.0000000</ele>
<time>2008-07-11T21:57:39Z</time>
</trkpt>
<trkpt lat="51.2197600" lon="6.3030830">
<ele>67.0000000</ele>
<time>2008-07-11T21:57:56Z</time>
</trkpt>
<trkpt lat="51.2198140" lon="6.3030830">
<ele>67.0000000</ele>
<time>2008-07-11T21:57:57Z</time>
</trkpt>
<trkpt lat="51.2196520" lon="6.3046750">
<ele>68.0000000</ele>
<time>2008-07-11T21:58:12Z</time>
</trkpt>
<trkpt lat="51.2196250" lon="6.3057510">
<ele>68.0000000</ele>
<time>2008-07-11T21:58:23Z</time>
</trkpt>
<trkpt lat="51.2195720" lon="6.3064390">
<ele>69.0000000</ele>
<time>2008-07-11T21:58:29Z</time>
</trkpt>
<trkpt lat="51.2197330" lon="6.3071700">
<ele>68.0000000</ele>
<time>2008-07-11T21:58:37Z</time>
</trkpt>
<trkpt lat="51.2203800" lon="6.3083320">
<ele>69.0000000</ele>
<time>2008-07-11T21:58:52Z</time>
</trkpt>
<trkpt lat="51.2211890" lon="6.3094940">
<ele>67.0000000</ele>
<time>2008-07-11T21:59:09Z</time>
</trkpt>
<trkpt lat="51.2221860" lon="6.3104400">
<ele>71.0000000</ele>
<time>2008-07-11T21:59:26Z</time>
</trkpt>
<trkpt lat="51.2222130" lon="6.3104400">
<ele>71.0000000</ele>
<time>2008-07-11T21:59:27Z</time>
</trkpt>
<trkpt lat="51.2232910" lon="6.3112580">
<ele>69.0000000</ele>
<time>2008-07-11T21:59:45Z</time>
</trkpt>
<trkpt lat="51.2236820" lon="6.3122480">
<ele>69.0000000</ele>
<time>2008-07-11T21:59:57Z</time>
</trkpt>
<trkpt lat="51.2241130" lon="6.3132370">
<ele>68.0000000</ele>
<time>2008-07-11T22:00:08Z</time>
</trkpt>
<trkpt lat="51.2243020" lon="6.3144850">
<ele>67.0000000</ele>
<time>2008-07-11T22:00:21Z</time>
</trkpt>
<trkpt lat="51.2244900" lon="6.3165940">
<ele>68.0000000</ele>
<time>2008-07-11T22:00:41Z</time>
</trkpt>
<trkpt lat="51.2247060" lon="6.3181430">
<ele>67.0000000</ele>
<time>2008-07-11T22:00:57Z</time>
</trkpt>
<trkpt lat="51.2253260" lon="6.3225760">
<ele>68.0000000</ele>
<time>2008-07-11T22:01:40Z</time>
</trkpt>
<trkpt lat="51.2255680" lon="6.3236080">
<ele>67.0000000</ele>
<time>2008-07-11T22:01:51Z</time>
</trkpt>
<trkpt lat="51.2261340" lon="6.3248560">
<ele>68.0000000</ele>
<time>2008-07-11T22:02:06Z</time>
</trkpt>
<trkpt lat="51.2267270" lon="6.3258460">
<ele>68.0000000</ele>
<time>2008-07-11T22:02:19Z</time>
</trkpt>
<trkpt lat="51.2268080" lon="6.3260180">
<ele>68.0000000</ele>
<time>2008-07-11T22:02:21Z</time>
</trkpt>
<trkpt lat="51.2271580" lon="6.3273520">
<ele>67.0000000</ele>
<time>2008-07-11T22:02:35Z</time>
</trkpt>
<trkpt lat="51.2277510" lon="6.3298910">
<ele>65.0000000</ele>
<time>2008-07-11T22:03:01Z</time>
</trkpt>
<trkpt lat="51.2282090" lon="6.3320860">
<ele>66.0000000</ele>
<time>2008-07-11T22:03:23Z</time>
</trkpt>
<trkpt lat="51.2285060" lon="6.3335920">
<ele>65.0000000</ele>
<time>2008-07-11T22:03:39Z</time>
</trkpt>
<trkpt lat="51.2287750" lon="6.3351410">
<ele>64.0000000</ele>
<time>2008-07-11T22:03:54Z</time>
</trkpt>
<trkpt lat="51.2291800" lon="6.3365610">
<ele>63.0000000</ele>
<time>2008-07-11T22:04:09Z</time>
</trkpt>
<trkpt lat="51.2294760" lon="6.3378950">
<ele>64.0000000</ele>
<time>2008-07-11T22:04:23Z</time>
</trkpt>
<trkpt lat="51.2297990" lon="6.3400040">
<ele>65.0000000</ele>
<time>2008-07-11T22:04:44Z</time>
</trkpt>
<trkpt lat="51.2299340" lon="6.3413810">
<ele>64.0000000</ele>
<time>2008-07-11T22:04:57Z</time>
</trkpt>
<trkpt lat="51.2297990" lon="6.3425860">
<ele>64.0000000</ele>
<time>2008-07-11T22:05:09Z</time>
</trkpt>
<trkpt lat="51.2297190" lon="6.3435760">
<ele>65.0000000</ele>
<time>2008-07-11T22:05:19Z</time>
</trkpt>
<trkpt lat="51.2297990" lon="6.3442640">
<ele>65.0000000</ele>
<time>2008-07-11T22:05:25Z</time>
</trkpt>
<trkpt lat="51.2298940" lon="6.3453380">
<ele>64.0000000</ele>
<time>2008-07-11T22:05:36Z</time>
</trkpt>
<trkpt lat="51.2301100" lon="6.3464140">
<ele>61.0000000</ele>
<time>2008-07-11T22:05:47Z</time>
</trkpt>
<trkpt lat="51.2306760" lon="6.3474900">
<ele>61.0000000</ele>
<time>2008-07-11T22:06:00Z</time>
</trkpt>
<trkpt lat="51.2306760" lon="6.3476200">
<ele>61.0000000</ele>
<time>2008-07-11T22:06:02Z</time>
</trkpt>
<trkpt lat="51.2311610" lon="6.3488250">
<ele>64.0000000</ele>
<time>2008-07-11T22:06:15Z</time>
</trkpt>
<trkpt lat="51.2317270" lon="6.3506320">
<ele>69.0000000</ele>
<time>2008-07-11T22:06:35Z</time>
</trkpt>
<trkpt lat="51.2322660" lon="6.3526550">
<ele>67.0000000</ele>
<time>2008-07-11T22:06:56Z</time>
</trkpt>
<trkpt lat="51.2333440" lon="6.3556250">
<ele>68.0000000</ele>
<time>2008-07-11T22:07:29Z</time>
</trkpt>
<trkpt lat="51.2342330" lon="6.3578200">
<ele>67.0000000</ele>
<time>2008-07-11T22:07:54Z</time>
</trkpt>
<trkpt lat="51.2350690" lon="6.3597140">
<ele>67.0000000</ele>
<time>2008-07-11T22:08:17Z</time>
</trkpt>
<trkpt lat="51.2358230" lon="6.3610910">
<ele>68.0000000</ele>
<time>2008-07-11T22:08:34Z</time>
</trkpt>
<trkpt lat="51.2358500" lon="6.3610910">
<ele>68.0000000</ele>
<time>2008-07-11T22:08:35Z</time>
</trkpt>
<trkpt lat="51.2364430" lon="6.3621670">
<ele>69.0000000</ele>
<time>2008-07-11T22:08:49Z</time>
</trkpt>
<trkpt lat="51.2372520" lon="6.3635870">
<ele>67.0000000</ele>
<time>2008-07-11T22:09:07Z</time>
</trkpt>
<trkpt lat="51.2376560" lon="6.3644480">
<ele>67.0000000</ele>
<time>2008-07-11T22:09:17Z</time>
</trkpt>
<trkpt lat="51.2381950" lon="6.3654380">
<ele>67.0000000</ele>
<time>2008-07-11T22:09:30Z</time>
</trkpt>
<trkpt lat="51.2385450" lon="6.3664710">
<ele>67.0000000</ele>
<time>2008-07-11T22:09:41Z</time>
</trkpt>
<trkpt lat="51.2390840" lon="6.3678480">
<ele>67.0000000</ele>
<time>2008-07-11T22:09:57Z</time>
</trkpt>
<trkpt lat="51.2392730" lon="6.3697850">
<ele>67.0000000</ele>
<time>2008-07-11T22:10:16Z</time>
</trkpt>
<trkpt lat="51.2393540" lon="6.3712910">
<ele>66.0000000</ele>
<time>2008-07-11T22:10:31Z</time>
</trkpt>
<trkpt lat="51.2393000" lon="6.3727550">
<ele>66.0000000</ele>
<time>2008-07-11T22:10:45Z</time>
</trkpt>
<trkpt lat="51.2390570" lon="6.3740890">
<ele>67.0000000</ele>
<time>2008-07-11T22:10:58Z</time>
</trkpt>
<trkpt lat="51.2387610" lon="6.3754660">
<ele>67.0000000</ele>
<time>2008-07-11T22:11:12Z</time>
</trkpt>
<trkpt lat="51.2378180" lon="6.3780490">
<ele>71.0000000</ele>
<time>2008-07-11T22:11:41Z</time>
</trkpt>
<trkpt lat="51.2383700" lon="6.3786930">
<ele>69.0000000</ele>
<time>2008-07-11T22:11:51Z</time>
</trkpt>
<trkpt lat="51.2396370" lon="6.3797690">
<ele>68.0000000</ele>
<time>2008-07-11T22:12:14Z</time>
</trkpt>
<trkpt lat="51.2404190" lon="6.3805870">
<ele>67.0000000</ele>
<time>2008-07-11T22:12:28Z</time>
</trkpt>
<trkpt lat="51.2413350" lon="6.3815770">
<ele>65.0000000</ele>
<time>2008-07-11T22:12:45Z</time>
</trkpt>
<trkpt lat="51.2417390" lon="6.3818780">
<ele>65.0000000</ele>
<time>2008-07-11T22:12:52Z</time>
</trkpt>
<trkpt lat="51.2421160" lon="6.3821800">
<ele>63.0000000</ele>
<time>2008-07-11T22:12:58Z</time>
</trkpt>
<trkpt lat="51.2435180" lon="6.3824380">
<ele>62.0000000</ele>
<time>2008-07-11T22:13:20Z</time>
</trkpt>
<trkpt lat="51.2432480" lon="6.3827820">
<ele>62.0000000</ele>
<time>2008-07-11T22:13:25Z</time>
</trkpt>
<trkpt lat="51.2431140" lon="6.3833420">
<ele>60.0000000</ele>
<time>2008-07-11T22:13:31Z</time>
</trkpt>
<trkpt lat="51.2431140" lon="6.3833850">
<ele>60.0000000</ele>
<time>2008-07-11T22:13:32Z</time>
</trkpt>
<trkpt lat="51.2429790" lon="6.3839020">
<ele>59.0000000</ele>
<time>2008-07-11T22:13:37Z</time>
</trkpt>
<trkpt lat="51.2430330" lon="6.3864840">
<ele>55.0000000</ele>
<time>2008-07-11T22:14:02Z</time>
</trkpt>
<trkpt lat="51.2429790" lon="6.3866130">
<ele>55.0000000</ele>
<time>2008-07-11T22:14:03Z</time>
</trkpt>
<trkpt lat="51.2428710" lon="6.3876470">
<ele>58.0000000</ele>
<time>2008-07-11T22:14:13Z</time>
</trkpt>
<trkpt lat="51.2430870" lon="6.3884210">
<ele>54.0000000</ele>
<time>2008-07-11T22:14:22Z</time>
</trkpt>
<trkpt lat="51.2430870" lon="6.3894540">
<ele>54.0000000</ele>
<time>2008-07-11T22:14:32Z</time>
</trkpt>
<trkpt lat="51.2430330" lon="6.3904880">
<ele>52.0000000</ele>
<time>2008-07-11T22:14:42Z</time>
</trkpt>
<trkpt lat="51.2427360" lon="6.3913050">
<ele>54.0000000</ele>
<time>2008-07-11T22:14:51Z</time>
</trkpt>
<trkpt lat="51.2426550" lon="6.3920800">
<ele>54.0000000</ele>
<time>2008-07-11T22:14:58Z</time>
</trkpt>
<trkpt lat="51.2426820" lon="6.3934150">
<ele>50.0000000</ele>
<time>2008-07-11T22:15:11Z</time>
</trkpt>
<trkpt lat="51.2427630" lon="6.3938450">
<ele>49.0000000</ele>
<time>2008-07-11T22:15:15Z</time>
</trkpt>
<trkpt lat="51.2427630" lon="6.3938880">
<ele>49.0000000</ele>
<time>2008-07-11T22:15:16Z</time>
</trkpt>
<trkpt lat="51.2428980" lon="6.3944050">
<ele>49.0000000</ele>
<time>2008-07-11T22:15:21Z</time>
</trkpt>
<trkpt lat="51.2429250" lon="6.3943190">
<ele>51.0000000</ele>
<time>2008-07-11T22:15:22Z</time>
</trkpt>
<trkpt lat="51.2431670" lon="6.3946630">
<ele>49.0000000</ele>
<time>2008-07-11T22:15:27Z</time>
</trkpt>
<trkpt lat="51.2430870" lon="6.3959540">
<ele>48.0000000</ele>
<time>2008-07-11T22:15:40Z</time>
</trkpt>
<trkpt lat="51.2431940" lon="6.3968580">
<ele>46.0000000</ele>
<time>2008-07-11T22:15:49Z</time>
</trkpt>
<trkpt lat="51.2435720" lon="6.3978050">
<ele>45.0000000</ele>
<time>2008-07-11T22:15:59Z</time>
</trkpt>
<trkpt lat="51.2440570" lon="6.3995270">
<ele>45.0000000</ele>
<time>2008-07-11T22:16:18Z</time>
</trkpt>
<trkpt lat="51.2440570" lon="6.4001300">
<ele>46.0000000</ele>
<time>2008-07-11T22:16:23Z</time>
</trkpt>
<trkpt lat="51.2442720" lon="6.4009050">
<ele>45.0000000</ele>
<time>2008-07-11T22:16:32Z</time>
</trkpt>
<trkpt lat="51.2445690" lon="6.4022820">
<ele>44.0000000</ele>
<time>2008-07-11T22:16:46Z</time>
</trkpt>
<trkpt lat="51.2445690" lon="6.4031000">
<ele>44.0000000</ele>
<time>2008-07-11T22:16:53Z</time>
</trkpt>
<trkpt lat="51.2446100" lon="6.4039170">
<ele>43.0000000</ele>
<time>2008-07-11T22:17:01Z</time>
</trkpt>
<trkpt lat="51.2446100" lon="6.4039600">
<ele>43.0000000</ele>
<time>2008-07-11T22:17:02Z</time>
</trkpt>
<trkpt lat="51.2450140" lon="6.4050800">
<ele>41.0000000</ele>
<time>2008-07-11T22:17:14Z</time>
</trkpt>
<trkpt lat="51.2447180" lon="6.4059410">
<ele>41.0000000</ele>
<time>2008-07-11T22:17:24Z</time>
</trkpt>
<trkpt lat="51.2451760" lon="6.4070170">
<ele>42.0000000</ele>
<time>2008-07-11T22:17:36Z</time>
</trkpt>
<trkpt lat="51.2455260" lon="6.4080930">
<ele>39.0000000</ele>
<time>2008-07-11T22:17:48Z</time>
</trkpt>
<trkpt lat="51.2456880" lon="6.4088250">
<ele>39.0000000</ele>
<time>2008-07-11T22:17:55Z</time>
</trkpt>
<trkpt lat="51.2459030" lon="6.4105470">
<ele>40.0000000</ele>
<time>2008-07-11T22:18:12Z</time>
</trkpt>
<trkpt lat="51.2459030" lon="6.4115800">
<ele>40.0000000</ele>
<time>2008-07-11T22:18:22Z</time>
</trkpt>
<trkpt lat="51.2460920" lon="6.4126570">
<ele>39.0000000</ele>
<time>2008-07-11T22:18:33Z</time>
</trkpt>
<trkpt lat="51.2460920" lon="6.4127430">
<ele>39.0000000</ele>
<time>2008-07-11T22:18:34Z</time>
</trkpt>
<trkpt lat="51.2463340" lon="6.4135610">
<ele>39.0000000</ele>
<time>2008-07-11T22:18:43Z</time>
</trkpt>
<trkpt lat="51.2474660" lon="6.4169620">
<ele>39.0000000</ele>
<time>2008-07-11T22:19:20Z</time>
</trkpt>
<trkpt lat="51.2477360" lon="6.4177370">
<ele>39.0000000</ele>
<time>2008-07-11T22:19:28Z</time>
</trkpt>
<trkpt lat="51.2478170" lon="6.4178230">
<ele>39.0000000</ele>
<time>2008-07-11T22:19:30Z</time>
</trkpt>
<trkpt lat="51.2484630" lon="6.4192000">
<ele>39.0000000</ele>
<time>2008-07-11T22:19:46Z</time>
</trkpt>
<trkpt lat="51.2491910" lon="6.4207070">
<ele>38.0000000</ele>
<time>2008-07-11T22:20:05Z</time>
</trkpt>
<trkpt lat="51.2491910" lon="6.4207930">
<ele>38.0000000</ele>
<time>2008-07-11T22:20:06Z</time>
</trkpt>
<trkpt lat="51.2507810" lon="6.4241080">
<ele>38.0000000</ele>
<time>2008-07-11T22:20:46Z</time>
</trkpt>
<trkpt lat="51.2501610" lon="6.4278540">
<ele>37.0000000</ele>
<time>2008-07-11T22:21:23Z</time>
</trkpt>
<trkpt lat="51.2499190" lon="6.4287150">
<ele>37.0000000</ele>
<time>2008-07-11T22:21:32Z</time>
</trkpt>
<trkpt lat="51.2494340" lon="6.4294040">
<ele>37.0000000</ele>
<time>2008-07-11T22:21:42Z</time>
</trkpt>
<trkpt lat="51.2490830" lon="6.4302220">
<ele>36.0000000</ele>
<time>2008-07-11T22:21:52Z</time>
</trkpt>
<trkpt lat="51.2489220" lon="6.4315130">
<ele>37.0000000</ele>
<time>2008-07-11T22:22:04Z</time>
</trkpt>
<trkpt lat="51.2487870" lon="6.4322020">
<ele>37.0000000</ele>
<time>2008-07-11T22:22:11Z</time>
</trkpt>
<trkpt lat="51.2487870" lon="6.4322450">
<ele>37.0000000</ele>
<time>2008-07-11T22:22:12Z</time>
</trkpt>
<trkpt lat="51.2488140" lon="6.4341820">
<ele>36.0000000</ele>
<time>2008-07-11T22:22:31Z</time>
</trkpt>
<trkpt lat="51.2485980" lon="6.4356030">
<ele>36.0000000</ele>
<time>2008-07-11T22:22:45Z</time>
</trkpt>
<trkpt lat="51.2484630" lon="6.4360340">
<ele>36.0000000</ele>
<time>2008-07-11T22:22:49Z</time>
</trkpt>
<trkpt lat="51.2475470" lon="6.4429220">
<ele>36.0000000</ele>
<time>2008-07-11T22:23:57Z</time>
</trkpt>
<trkpt lat="51.2475500" lon="6.4428780">
<ele>36.0000000</ele>
<time>2008-07-11T22:23:58Z</time>
</trkpt>
<trkpt lat="51.2475230" lon="6.4436960">
<ele>36.0000000</ele>
<time>2008-07-11T22:24:05Z</time>
</trkpt>
<trkpt lat="51.2473070" lon="6.4452880">
<ele>38.0000000</ele>
<time>2008-07-11T22:24:21Z</time>
</trkpt>
<trkpt lat="51.2470110" lon="6.4461060">
<ele>36.0000000</ele>
<time>2008-07-11T22:24:30Z</time>
</trkpt>
<trkpt lat="51.2458520" lon="6.4473110">
<ele>34.0000000</ele>
<time>2008-07-11T22:24:52Z</time>
</trkpt>
<trkpt lat="51.2455020" lon="6.4482580">
<ele>35.0000000</ele>
<time>2008-07-11T22:25:02Z</time>
</trkpt>
<trkpt lat="51.2441540" lon="6.4511000">
<ele>37.0000000</ele>
<time>2008-07-11T22:25:37Z</time>
</trkpt>
<trkpt lat="51.2435880" lon="6.4523910">
<ele>39.0000000</ele>
<time>2008-07-11T22:25:52Z</time>
</trkpt>
<trkpt lat="51.2436690" lon="6.4535960">
<ele>39.0000000</ele>
<time>2008-07-11T22:26:03Z</time>
</trkpt>
<trkpt lat="51.2432920" lon="6.4552750">
<ele>39.0000000</ele>
<time>2008-07-11T22:26:21Z</time>
</trkpt>
<trkpt lat="51.2401930" lon="6.4593650">
<ele>38.0000000</ele>
<time>2008-07-11T22:27:22Z</time>
</trkpt>
<trkpt lat="51.2393030" lon="6.4602690">
<ele>39.0000000</ele>
<time>2008-07-11T22:27:39Z</time>
</trkpt>
<trkpt lat="51.2386300" lon="6.4613880">
<ele>37.0000000</ele>
<time>2008-07-11T22:27:54Z</time>
</trkpt>
<trkpt lat="51.2378480" lon="6.4619470">
<ele>38.0000000</ele>
<time>2008-07-11T22:28:07Z</time>
</trkpt>
<trkpt lat="51.2375520" lon="6.4619900">
<ele>38.0000000</ele>
<time>2008-07-11T22:28:11Z</time>
</trkpt>
<trkpt lat="51.2369860" lon="6.4627650">
<ele>41.0000000</ele>
<time>2008-07-11T22:28:23Z</time>
</trkpt>
<trkpt lat="51.2366080" lon="6.4633680">
<ele>39.0000000</ele>
<time>2008-07-11T22:28:31Z</time>
</trkpt>
<trkpt lat="51.2365540" lon="6.4641860">
<ele>38.0000000</ele>
<time>2008-07-11T22:28:39Z</time>
</trkpt>
<trkpt lat="51.2367700" lon="6.4653050">
<ele>37.0000000</ele>
<time>2008-07-11T22:28:50Z</time>
</trkpt>
<trkpt lat="51.2367160" lon="6.4659510">
<ele>37.0000000</ele>
<time>2008-07-11T22:28:57Z</time>
</trkpt>
<trkpt lat="51.2364200" lon="6.4664670">
<ele>38.0000000</ele>
<time>2008-07-11T22:29:03Z</time>
</trkpt>
<trkpt lat="51.2360960" lon="6.4665960">
<ele>37.0000000</ele>
<time>2008-07-11T22:29:09Z</time>
</trkpt>
<trkpt lat="51.2356110" lon="6.4677160">
<ele>37.0000000</ele>
<time>2008-07-11T22:29:22Z</time>
</trkpt>
<trkpt lat="51.2355300" lon="6.4682320">
<ele>37.0000000</ele>
<time>2008-07-11T22:29:27Z</time>
</trkpt>
<trkpt lat="51.2352880" lon="6.4686630">
<ele>38.0000000</ele>
<time>2008-07-11T22:29:32Z</time>
</trkpt>
<trkpt lat="51.2348030" lon="6.4687490">
<ele>38.0000000</ele>
<time>2008-07-11T22:29:40Z</time>
</trkpt>
<trkpt lat="51.2343720" lon="6.4691790">
<ele>40.0000000</ele>
<time>2008-07-11T22:29:48Z</time>
</trkpt>
<trkpt lat="51.2339130" lon="6.4690930">
<ele>40.0000000</ele>
<time>2008-07-11T22:29:55Z</time>
</trkpt>
<trkpt lat="51.2338460" lon="6.4706450">
<ele>38.0000000</ele>
<time>2008-07-11T22:30:10Z</time>
</trkpt>
<trkpt lat="51.2339000" lon="6.4714200">
<ele>37.0000000</ele>
<time>2008-07-11T22:30:17Z</time>
</trkpt>
<trkpt lat="51.2338460" lon="6.4718940">
<ele>37.0000000</ele>
<time>2008-07-11T22:30:22Z</time>
</trkpt>
<trkpt lat="51.2335770" lon="6.4725820">
<ele>38.0000000</ele>
<time>2008-07-11T22:30:30Z</time>
</trkpt>
<trkpt lat="51.2334960" lon="6.4729690">
<ele>38.0000000</ele>
<time>2008-07-11T22:30:34Z</time>
</trkpt>
<trkpt lat="51.2338190" lon="6.4737440">
<ele>37.0000000</ele>
<time>2008-07-11T22:30:43Z</time>
</trkpt>
<trkpt lat="51.2333890" lon="6.4754730">
<ele>37.0000000</ele>
<time>2008-07-11T22:31:01Z</time>
</trkpt>
<trkpt lat="51.2326610" lon="6.4773660">
<ele>39.0000000</ele>
<time>2008-07-11T22:31:22Z</time>
</trkpt>
<trkpt lat="51.2325810" lon="6.4776250">
<ele>39.0000000</ele>
<time>2008-07-11T22:31:25Z</time>
</trkpt>
<trkpt lat="51.2326610" lon="6.4781410">
<ele>38.0000000</ele>
<time>2008-07-11T22:31:30Z</time>
</trkpt>
<trkpt lat="51.2320680" lon="6.4784850">
<ele>38.0000000</ele>
<time>2008-07-11T22:31:40Z</time>
</trkpt>
<trkpt lat="51.2315030" lon="6.4791740">
<ele>38.0000000</ele>
<time>2008-07-11T22:31:51Z</time>
</trkpt>
<trkpt lat="51.2310170" lon="6.4795610">
<ele>39.0000000</ele>
<time>2008-07-11T22:31:59Z</time>
</trkpt>
<trkpt lat="51.2304780" lon="6.4788720">
<ele>39.0000000</ele>
<time>2008-07-11T22:32:10Z</time>
</trkpt>
<trkpt lat="51.2301550" lon="6.4783130">
<ele>40.0000000</ele>
<time>2008-07-11T22:32:17Z</time>
</trkpt>
<trkpt lat="51.2295080" lon="6.4776680">
<ele>38.0000000</ele>
<time>2008-07-11T22:32:29Z</time>
</trkpt>
<trkpt lat="51.2288610" lon="6.4774090">
<ele>38.0000000</ele>
<time>2008-07-11T22:32:39Z</time>
</trkpt>
<trkpt lat="51.2264360" lon="6.4767640">
<ele>40.0000000</ele>
<time>2008-07-11T22:33:17Z</time>
</trkpt>
<trkpt lat="51.2260050" lon="6.4765920">
<ele>40.0000000</ele>
<time>2008-07-11T22:33:24Z</time>
</trkpt>
<trkpt lat="51.2249000" lon="6.4765920">
<ele>40.0000000</ele>
<time>2008-07-11T22:33:41Z</time>
</trkpt>
<trkpt lat="51.2247110" lon="6.4764200">
<ele>40.0000000</ele>
<time>2008-07-11T22:33:44Z</time>
</trkpt>
<trkpt lat="51.2244690" lon="6.4760320">
<ele>41.0000000</ele>
<time>2008-07-11T22:33:49Z</time>
</trkpt>
<trkpt lat="51.2239030" lon="6.4737520">
<ele>41.0000000</ele>
<time>2008-07-11T22:34:13Z</time>
</trkpt>
<trkpt lat="51.2231480" lon="6.4752580">
<ele>40.0000000</ele>
<time>2008-07-11T22:34:32Z</time>
</trkpt>
<trkpt lat="51.2227440" lon="6.4759030">
<ele>41.0000000</ele>
<time>2008-07-11T22:34:40Z</time>
</trkpt>
<trkpt lat="51.2225280" lon="6.4768070">
<ele>40.0000000</ele>
<time>2008-07-11T22:34:50Z</time>
</trkpt>
<trkpt lat="51.2220700" lon="6.4776680">
<ele>40.0000000</ele>
<time>2008-07-11T22:35:01Z</time>
</trkpt>
<trkpt lat="51.2209920" lon="6.4778830">
<ele>40.0000000</ele>
<time>2008-07-11T22:35:17Z</time>
</trkpt>
<trkpt lat="51.2206690" lon="6.4788290">
<ele>42.0000000</ele>
<time>2008-07-11T22:35:28Z</time>
</trkpt>
<trkpt lat="51.2204800" lon="6.4792600">
<ele>42.0000000</ele>
<time>2008-07-11T22:35:33Z</time>
</trkpt>
<trkpt lat="51.2195910" lon="6.4815410">
<ele>41.0000000</ele>
<time>2008-07-11T22:35:59Z</time>
</trkpt>
<trkpt lat="51.2192940" lon="6.4821430">
<ele>43.0000000</ele>
<time>2008-07-11T22:36:06Z</time>
</trkpt>
<trkpt lat="51.2189980" lon="6.4823150">
<ele>43.0000000</ele>
<time>2008-07-11T22:36:11Z</time>
</trkpt>
<trkpt lat="51.2182700" lon="6.4823580">
<ele>45.0000000</ele>
<time>2008-07-11T22:36:22Z</time>
</trkpt>
<trkpt lat="51.2160870" lon="6.4825310">
<ele>44.0000000</ele>
<time>2008-07-11T22:36:56Z</time>
</trkpt>
<trkpt lat="51.2154680" lon="6.4824450">
<ele>44.0000000</ele>
<time>2008-07-11T22:37:06Z</time>
</trkpt>
<trkpt lat="51.2143900" lon="6.4820570">
<ele>44.0000000</ele>
<time>2008-07-11T22:37:23Z</time>
</trkpt>
<trkpt lat="51.2146320" lon="6.4831330">
<ele>42.0000000</ele>
<time>2008-07-11T22:37:34Z</time>
</trkpt>
<trkpt lat="51.2150360" lon="6.4847250">
<ele>44.0000000</ele>
<time>2008-07-11T22:37:50Z</time>
</trkpt>
<trkpt lat="51.2150090" lon="6.4848540">
<ele>44.0000000</ele>
<time>2008-07-11T22:37:51Z</time>
</trkpt>
<trkpt lat="51.2150360" lon="6.4858440">
<ele>43.0000000</ele>
<time>2008-07-11T22:38:01Z</time>
</trkpt>
<trkpt lat="51.2148210" lon="6.4863170">
<ele>41.0000000</ele>
<time>2008-07-11T22:38:07Z</time>
</trkpt>
<trkpt lat="51.2142820" lon="6.4869620">
<ele>41.0000000</ele>
<time>2008-07-11T22:38:17Z</time>
</trkpt>
<trkpt lat="51.2142010" lon="6.4870050">
<ele>41.0000000</ele>
<time>2008-07-11T22:38:18Z</time>
</trkpt>
<trkpt lat="51.2136620" lon="6.4873490">
<ele>43.0000000</ele>
<time>2008-07-11T22:38:27Z</time>
</trkpt>
<trkpt lat="51.2135000" lon="6.4873060">
<ele>43.0000000</ele>
<time>2008-07-11T22:38:30Z</time>
</trkpt>
<trkpt lat="51.2124490" lon="6.4869620">
<ele>41.0000000</ele>
<time>2008-07-11T22:38:46Z</time>
</trkpt>
<trkpt lat="51.2116820" lon="6.4896310">
<ele>50.0000000</ele>
<time>2008-07-11T22:39:15Z</time>
</trkpt>
<trkpt lat="51.2115200" lon="6.4907490">
<ele>47.0000000</ele>
<time>2008-07-11T22:39:26Z</time>
</trkpt>
<trkpt lat="51.2113310" lon="6.4918250">
<ele>44.0000000</ele>
<time>2008-07-11T22:39:36Z</time>
</trkpt>
<trkpt lat="51.2113310" lon="6.4925560">
<ele>41.0000000</ele>
<time>2008-07-11T22:39:44Z</time>
</trkpt>
<trkpt lat="51.2111690" lon="6.4933730">
<ele>44.0000000</ele>
<time>2008-07-11T22:39:52Z</time>
</trkpt>
<trkpt lat="51.2109540" lon="6.4938900">
<ele>43.0000000</ele>
<time>2008-07-11T22:39:58Z</time>
</trkpt>
<trkpt lat="51.2104960" lon="6.4945780">
<ele>43.0000000</ele>
<time>2008-07-11T22:40:08Z</time>
</trkpt>
<trkpt lat="51.2104690" lon="6.4947070">
<ele>41.0000000</ele>
<time>2008-07-11T22:40:09Z</time>
</trkpt>
<trkpt lat="51.2098220" lon="6.4949650">
<ele>42.0000000</ele>
<time>2008-07-11T22:40:19Z</time>
</trkpt>
<trkpt lat="51.2092290" lon="6.4954810">
<ele>42.0000000</ele>
<time>2008-07-11T22:40:30Z</time>
</trkpt>
<trkpt lat="51.2087980" lon="6.4964710">
<ele>39.0000000</ele>
<time>2008-07-11T22:40:41Z</time>
</trkpt>
<trkpt lat="51.2086360" lon="6.4998260">
<ele>41.0000000</ele>
<time>2008-07-11T22:41:14Z</time>
</trkpt>
<trkpt lat="51.2084750" lon="6.5005580">
<ele>41.0000000</ele>
<time>2008-07-11T22:41:21Z</time>
</trkpt>
<trkpt lat="51.2080970" lon="6.5013320">
<ele>41.0000000</ele>
<time>2008-07-11T22:41:31Z</time>
</trkpt>
<trkpt lat="51.2078820" lon="6.5019340">
<ele>41.0000000</ele>
<time>2008-07-11T22:41:37Z</time>
</trkpt>
<trkpt lat="51.2078550" lon="6.5020630">
<ele>41.0000000</ele>
<time>2008-07-11T22:41:39Z</time>
</trkpt>
<trkpt lat="51.2071540" lon="6.5057630">
<ele>41.0000000</ele>
<time>2008-07-11T22:42:16Z</time>
</trkpt>
<trkpt lat="51.2066150" lon="6.5069240">
<ele>41.0000000</ele>
<time>2008-07-11T22:42:30Z</time>
</trkpt>
<trkpt lat="51.2057530" lon="6.5082150">
<ele>43.0000000</ele>
<time>2008-07-11T22:42:48Z</time>
</trkpt>
<trkpt lat="51.2059820" lon="6.5083440">
<ele>43.0000000</ele>
<time>2008-07-11T22:42:52Z</time>
</trkpt>
<trkpt lat="51.2062510" lon="6.5088170">
<ele>42.0000000</ele>
<time>2008-07-11T22:42:58Z</time>
</trkpt>
<trkpt lat="51.2064940" lon="6.5109680">
<ele>42.0000000</ele>
<time>2008-07-11T22:43:19Z</time>
</trkpt>
<trkpt lat="51.2077070" lon="6.5154850">
<ele>39.0000000</ele>
<time>2008-07-11T22:44:07Z</time>
</trkpt>
<trkpt lat="51.2079760" lon="6.5166030">
<ele>39.0000000</ele>
<time>2008-07-11T22:44:18Z</time>
</trkpt>
<trkpt lat="51.2080030" lon="6.5181950">
<ele>40.0000000</ele>
<time>2008-07-11T22:44:34Z</time>
</trkpt>
<trkpt lat="51.2078410" lon="6.5191850">
<ele>41.0000000</ele>
<time>2008-07-11T22:44:43Z</time>
</trkpt>
<trkpt lat="51.2073830" lon="6.5201740">
<ele>42.0000000</ele>
<time>2008-07-11T22:44:55Z</time>
</trkpt>
<trkpt lat="51.2067630" lon="6.5218520">
<ele>40.0000000</ele>
<time>2008-07-11T22:45:14Z</time>
</trkpt>
<trkpt lat="51.2064940" lon="6.5229700">
<ele>41.0000000</ele>
<time>2008-07-11T22:45:26Z</time>
</trkpt>
<trkpt lat="51.2063050" lon="6.5251210">
<ele>41.0000000</ele>
<time>2008-07-11T22:45:47Z</time>
</trkpt>
<trkpt lat="51.2062510" lon="6.5271430">
<ele>40.0000000</ele>
<time>2008-07-11T22:46:06Z</time>
</trkpt>
<trkpt lat="51.2060090" lon="6.5280040">
<ele>40.0000000</ele>
<time>2008-07-11T22:46:15Z</time>
</trkpt>
<trkpt lat="51.2054700" lon="6.5295520">
<ele>40.0000000</ele>
<time>2008-07-11T22:46:32Z</time>
</trkpt>
<trkpt lat="51.2050390" lon="6.5310580">
<ele>40.0000000</ele>
<time>2008-07-11T22:46:48Z</time>
</trkpt>
<trkpt lat="51.2044190" lon="6.5320480">
<ele>40.0000000</ele>
<time>2008-07-11T22:47:02Z</time>
</trkpt>
<trkpt lat="51.2039610" lon="6.5323490">
<ele>40.0000000</ele>
<time>2008-07-11T22:47:09Z</time>
</trkpt>
<trkpt lat="51.2036510" lon="6.5327790">
<ele>40.0000000</ele>
<time>2008-07-11T22:47:16Z</time>
</trkpt>
<trkpt lat="51.2033280" lon="6.5329510">
<ele>40.0000000</ele>
<time>2008-07-11T22:47:21Z</time>
</trkpt>
<trkpt lat="51.2026540" lon="6.5328220">
<ele>39.0000000</ele>
<time>2008-07-11T22:47:31Z</time>
</trkpt>
<trkpt lat="51.2014950" lon="6.5325210">
<ele>40.0000000</ele>
<time>2008-07-11T22:47:50Z</time>
</trkpt>
<trkpt lat="51.1999050" lon="6.5322630">
<ele>41.0000000</ele>
<time>2008-07-11T22:48:14Z</time>
</trkpt>
<trkpt lat="51.1990700" lon="6.5320910">
<ele>42.0000000</ele>
<time>2008-07-11T22:48:27Z</time>
</trkpt>
<trkpt lat="51.1987190" lon="6.5325640">
<ele>43.0000000</ele>
<time>2008-07-11T22:48:34Z</time>
</trkpt>
<trkpt lat="51.1985040" lon="6.5333380">
<ele>42.0000000</ele>
<time>2008-07-11T22:48:42Z</time>
</trkpt>
<trkpt lat="51.1986110" lon="6.5348000">
<ele>41.0000000</ele>
<time>2008-07-11T22:48:57Z</time>
</trkpt>
<trkpt lat="51.1986380" lon="6.5359610">
<ele>41.0000000</ele>
<time>2008-07-11T22:49:08Z</time>
</trkpt>
<trkpt lat="51.1982880" lon="6.5371660">
<ele>42.0000000</ele>
<time>2008-07-11T22:49:21Z</time>
</trkpt>
<trkpt lat="51.1980190" lon="6.5381550">
<ele>42.0000000</ele>
<time>2008-07-11T22:49:31Z</time>
</trkpt>
<trkpt lat="51.1977760" lon="6.5383270">
<ele>46.0000000</ele>
<time>2008-07-11T22:49:35Z</time>
</trkpt>
<trkpt lat="51.1973990" lon="6.5387140">
<ele>46.0000000</ele>
<time>2008-07-11T22:49:42Z</time>
</trkpt>
<trkpt lat="51.1972910" lon="6.5387140">
<ele>46.0000000</ele>
<time>2008-07-11T22:49:44Z</time>
</trkpt>
<trkpt lat="51.1973450" lon="6.5392300">
<ele>44.0000000</ele>
<time>2008-07-11T22:49:49Z</time>
</trkpt>
<trkpt lat="51.1973720" lon="6.5397030">
<ele>42.0000000</ele>
<time>2008-07-11T22:49:53Z</time>
</trkpt>
<trkpt lat="51.1987730" lon="6.5411220">
<ele>43.0000000</ele>
<time>2008-07-11T22:50:19Z</time>
</trkpt>
<trkpt lat="51.1989080" lon="6.5415530">
<ele>42.0000000</ele>
<time>2008-07-11T22:50:23Z</time>
</trkpt>
<trkpt lat="51.1986650" lon="6.5420260">
<ele>43.0000000</ele>
<time>2008-07-11T22:50:29Z</time>
</trkpt>
<trkpt lat="51.1974530" lon="6.5447780">
<ele>44.0000000</ele>
<time>2008-07-11T22:51:02Z</time>
</trkpt>
<trkpt lat="51.1970480" lon="6.5459830">
<ele>45.0000000</ele>
<time>2008-07-11T22:51:15Z</time>
</trkpt>
<trkpt lat="51.1965090" lon="6.5473590">
<ele>45.0000000</ele>
<time>2008-07-11T22:51:31Z</time>
</trkpt>
<trkpt lat="51.1966170" lon="6.5484770">
<ele>44.0000000</ele>
<time>2008-07-11T22:51:42Z</time>
</trkpt>
<trkpt lat="51.1966980" lon="6.5496810">
<ele>41.0000000</ele>
<time>2008-07-11T22:51:53Z</time>
</trkpt>
<trkpt lat="51.1967250" lon="6.5496810">
<ele>41.0000000</ele>
<time>2008-07-11T22:51:54Z</time>
</trkpt>
<trkpt lat="51.1966440" lon="6.5502830">
<ele>41.0000000</ele>
<time>2008-07-11T22:52:00Z</time>
</trkpt>
<trkpt lat="51.1967790" lon="6.5511440">
<ele>41.0000000</ele>
<time>2008-07-11T22:52:08Z</time>
</trkpt>
<trkpt lat="51.1971560" lon="6.5523480">
<ele>41.0000000</ele>
<time>2008-07-11T22:52:21Z</time>
</trkpt>
<trkpt lat="51.1967250" lon="6.5526060">
<ele>42.0000000</ele>
<time>2008-07-11T22:52:28Z</time>
</trkpt>
<trkpt lat="51.1971830" lon="6.5542830">
<ele>42.0000000</ele>
<time>2008-07-11T22:52:46Z</time>
</trkpt>
<trkpt lat="51.1972100" lon="6.5547990">
<ele>41.0000000</ele>
<time>2008-07-11T22:52:51Z</time>
</trkpt>
<trkpt lat="51.1972910" lon="6.5551000">
<ele>41.0000000</ele>
<time>2008-07-11T22:52:54Z</time>
</trkpt>
<trkpt lat="51.1975070" lon="6.5553150">
<ele>41.0000000</ele>
<time>2008-07-11T22:52:58Z</time>
</trkpt>
<trkpt lat="51.1978030" lon="6.5551860">
<ele>41.0000000</ele>
<time>2008-07-11T22:53:03Z</time>
</trkpt>
<trkpt lat="51.1978300" lon="6.5551430">
<ele>41.0000000</ele>
<time>2008-07-11T22:53:04Z</time>
</trkpt>
<trkpt lat="51.1982880" lon="6.5549710">
<ele>44.0000000</ele>
<time>2008-07-11T22:53:11Z</time>
</trkpt>
<trkpt lat="51.1985850" lon="6.5549710">
<ele>44.0000000</ele>
<time>2008-07-11T22:53:15Z</time>
</trkpt>
<trkpt lat="51.1989620" lon="6.5557460">
<ele>42.0000000</ele>
<time>2008-07-11T22:53:25Z</time>
</trkpt>
<trkpt lat="51.2015760" lon="6.5563910">
<ele>41.0000000</ele>
<time>2008-07-11T22:54:06Z</time>
</trkpt>
<trkpt lat="51.2035160" lon="6.5567780">
<ele>43.0000000</ele>
<time>2008-07-11T22:54:36Z</time>
</trkpt>
<trkpt lat="51.2043250" lon="6.5569500">
<ele>42.0000000</ele>
<time>2008-07-11T22:54:48Z</time>
</trkpt>
<trkpt lat="51.2046480" lon="6.5568210">
<ele>40.0000000</ele>
<time>2008-07-11T22:54:53Z</time>
</trkpt>
<trkpt lat="51.2050520" lon="6.5580680">
<ele>42.0000000</ele>
<time>2008-07-11T22:55:07Z</time>
</trkpt>
<trkpt lat="51.2054570" lon="6.5592290">
<ele>41.0000000</ele>
<time>2008-07-11T22:55:20Z</time>
</trkpt>
<trkpt lat="51.2057800" lon="6.5601300">
<ele>41.0000000</ele>
<time>2008-07-11T22:55:30Z</time>
</trkpt>
<trkpt lat="51.2062120" lon="6.5617650">
<ele>42.0000000</ele>
<time>2008-07-11T22:55:47Z</time>
</trkpt>
<trkpt lat="51.2063460" lon="6.5624960">
<ele>41.0000000</ele>
<time>2008-07-11T22:55:54Z</time>
</trkpt>
<trkpt lat="51.2069120" lon="6.5635280">
<ele>42.0000000</ele>
<time>2008-07-11T22:56:08Z</time>
</trkpt>
<trkpt lat="51.2073710" lon="6.5651630">
<ele>41.0000000</ele>
<time>2008-07-11T22:56:25Z</time>
</trkpt>
<trkpt lat="51.2075590" lon="6.5658510">
<ele>41.0000000</ele>
<time>2008-07-11T22:56:32Z</time>
</trkpt>
<trkpt lat="51.2082870" lon="6.5680020">
<ele>40.0000000</ele>
<time>2008-07-11T22:56:56Z</time>
</trkpt>
<trkpt lat="51.2086640" lon="6.5697660">
<ele>41.0000000</ele>
<time>2008-07-11T22:57:14Z</time>
</trkpt>
<trkpt lat="51.2090410" lon="6.5718730">
<ele>41.0000000</ele>
<time>2008-07-11T22:57:35Z</time>
</trkpt>
<trkpt lat="51.2090680" lon="6.5729060">
<ele>41.0000000</ele>
<time>2008-07-11T22:57:45Z</time>
</trkpt>
<trkpt lat="51.2100120" lon="6.5732500">
<ele>42.0000000</ele>
<time>2008-07-11T22:58:00Z</time>
</trkpt>
<trkpt lat="51.2107930" lon="6.5736370">
<ele>42.0000000</ele>
<time>2008-07-11T22:58:13Z</time>
</trkpt>
<trkpt lat="51.2108740" lon="6.5736800">
<ele>42.0000000</ele>
<time>2008-07-11T22:58:14Z</time>
</trkpt>
<trkpt lat="51.2114400" lon="6.5740670">
<ele>42.0000000</ele>
<time>2008-07-11T22:58:23Z</time>
</trkpt>
<trkpt lat="51.2119520" lon="6.5747550">
<ele>42.0000000</ele>
<time>2008-07-11T22:58:34Z</time>
</trkpt>
<trkpt lat="51.2123020" lon="6.5751430">
<ele>41.0000000</ele>
<time>2008-07-11T22:58:40Z</time>
</trkpt>
<trkpt lat="51.2130030" lon="6.5754010">
<ele>40.0000000</ele>
<time>2008-07-11T22:58:51Z</time>
</trkpt>
</trkseg>
</trk>
</gpx>
